<?xml version="1.0" encoding="UTF-8" standalone="no" ?>
<gpx xmlns="http://www.topografix.com/GPX/1/1" xmlns:xsi="http://www.w3.org/2001/XMLSchema-instance" xsi:schemaLocation="http://www.topografix.com/GPX/1/1 http://www.topografix.com/GPX/1/1/gpx.xsd" version="1.1" creator="VisuGPX - https://www.visugpx.com">
  <metadata>
    <name>Circuit bonsecours</name>
  </metadata>
  <trk>
    <name><![CDATA[Circuit bonsecours_3]]></name>
    <trkseg>
      <trkpt lat="49.42821" lon="1.13924">
        <ele>136.639999</ele>
        <time>2020-12-05T14:50:13Z</time>
      </trkpt>
      <trkpt lat="49.42796" lon="1.13886">
        <ele>136.639999</ele>
        <time>2020-12-05T14:50:19Z</time>
      </trkpt>
      <trkpt lat="49.42792" lon="1.13882">
        <ele>136.639999</ele>
        <time>2020-12-05T14:50:20Z</time>
      </trkpt>
      <trkpt lat="49.42787" lon="1.13879">
        <ele>136.639999</ele>
        <time>2020-12-05T14:50:21Z</time>
      </trkpt>
      <trkpt lat="49.42775" lon="1.1387">
        <ele>136.639999</ele>
        <time>2020-12-05T14:50:24Z</time>
      </trkpt>
      <trkpt lat="49.42771" lon="1.13866">
        <ele>136.639999</ele>
        <time>2020-12-05T14:50:25Z</time>
      </trkpt>
      <trkpt lat="49.42767" lon="1.13862">
        <ele>136.639999</ele>
        <time>2020-12-05T14:50:26Z</time>
      </trkpt>
      <trkpt lat="49.42763" lon="1.13858">
        <ele>136.639999</ele>
        <time>2020-12-05T14:50:27Z</time>
      </trkpt>
      <trkpt lat="49.42758" lon="1.13855">
        <ele>136.639999</ele>
        <time>2020-12-05T14:50:28Z</time>
      </trkpt>
      <trkpt lat="49.42753" lon="1.13853">
        <ele>136.639999</ele>
        <time>2020-12-05T14:50:29Z</time>
      </trkpt>
      <trkpt lat="49.42749" lon="1.1385">
        <ele>138.089996</ele>
        <time>2020-12-05T14:50:30Z</time>
      </trkpt>
      <trkpt lat="49.42746" lon="1.13846">
        <ele>138.089996</ele>
        <time>2020-12-05T14:50:31Z</time>
      </trkpt>
      <trkpt lat="49.42686" lon="1.13802">
        <ele>140.970001</ele>
        <time>2020-12-05T14:50:45Z</time>
      </trkpt>
      <trkpt lat="49.42651" lon="1.13777">
        <ele>142.410004</ele>
        <time>2020-12-05T14:50:54Z</time>
      </trkpt>
      <trkpt lat="49.42646" lon="1.1378">
        <ele>142.410004</ele>
        <time>2020-12-05T14:50:55Z</time>
      </trkpt>
      <trkpt lat="49.42642" lon="1.13784">
        <ele>142.410004</ele>
        <time>2020-12-05T14:50:56Z</time>
      </trkpt>
      <trkpt lat="49.42638" lon="1.13788">
        <ele>142.410004</ele>
        <time>2020-12-05T14:50:57Z</time>
      </trkpt>
      <trkpt lat="49.42634" lon="1.13791">
        <ele>142.410004</ele>
        <time>2020-12-05T14:50:58Z</time>
      </trkpt>
      <trkpt lat="49.42628" lon="1.13795">
        <ele>142.410004</ele>
        <time>2020-12-05T14:50:59Z</time>
      </trkpt>
      <trkpt lat="49.42593" lon="1.13816">
        <ele>140.970001</ele>
        <time>2020-12-05T14:51:05Z</time>
      </trkpt>
      <trkpt lat="49.42573" lon="1.13829">
        <ele>142.410004</ele>
        <time>2020-12-05T14:51:08Z</time>
      </trkpt>
      <trkpt lat="49.42563" lon="1.13838">
        <ele>142.410004</ele>
        <time>2020-12-05T14:51:10Z</time>
      </trkpt>
      <trkpt lat="49.4256" lon="1.13846">
        <ele>142.410004</ele>
        <time>2020-12-05T14:51:11Z</time>
      </trkpt>
      <trkpt lat="49.42559" lon="1.13857">
        <ele>142.410004</ele>
        <time>2020-12-05T14:51:12Z</time>
      </trkpt>
      <trkpt lat="49.42559" lon="1.13868">
        <ele>142.410004</ele>
        <time>2020-12-05T14:51:13Z</time>
      </trkpt>
      <trkpt lat="49.4256" lon="1.13875">
        <ele>142.410004</ele>
        <time>2020-12-05T14:51:14Z</time>
      </trkpt>
      <trkpt lat="49.42568" lon="1.13947">
        <ele>143.369995</ele>
        <time>2020-12-05T14:51:22Z</time>
      </trkpt>
      <trkpt lat="49.4257" lon="1.13956">
        <ele>143.369995</ele>
        <time>2020-12-05T14:51:23Z</time>
      </trkpt>
      <trkpt lat="49.42573" lon="1.13964">
        <ele>143.369995</ele>
        <time>2020-12-05T14:51:24Z</time>
      </trkpt>
      <trkpt lat="49.42579" lon="1.13979">
        <ele>141.929993</ele>
        <time>2020-12-05T14:51:26Z</time>
      </trkpt>
      <trkpt lat="49.42583" lon="1.13985">
        <ele>141.929993</ele>
        <time>2020-12-05T14:51:27Z</time>
      </trkpt>
      <trkpt lat="49.42589" lon="1.13988">
        <ele>141.929993</ele>
        <time>2020-12-05T14:51:28Z</time>
      </trkpt>
      <trkpt lat="49.42599" lon="1.1399">
        <ele>140.009995</ele>
        <time>2020-12-05T14:51:30Z</time>
      </trkpt>
      <trkpt lat="49.42602" lon="1.13994">
        <ele>140.009995</ele>
        <time>2020-12-05T14:51:31Z</time>
      </trkpt>
      <trkpt lat="49.42604" lon="1.14001">
        <ele>140.009995</ele>
        <time>2020-12-05T14:51:32Z</time>
      </trkpt>
      <trkpt lat="49.42608" lon="1.14022">
        <ele>140.009995</ele>
        <time>2020-12-05T14:51:35Z</time>
      </trkpt>
      <trkpt lat="49.42616" lon="1.14072">
        <ele>140.490005</ele>
        <time>2020-12-05T14:51:42Z</time>
      </trkpt>
      <trkpt lat="49.4262" lon="1.14103">
        <ele>138.570007</ele>
        <time>2020-12-05T14:51:46Z</time>
      </trkpt>
      <trkpt lat="49.42645" lon="1.14248">
        <ele>140.009995</ele>
        <time>2020-12-05T14:52:04Z</time>
      </trkpt>
      <trkpt lat="49.42668" lon="1.14369">
        <ele>138.570007</ele>
        <time>2020-12-05T14:52:20Z</time>
      </trkpt>
      <trkpt lat="49.4267" lon="1.14376">
        <ele>138.570007</ele>
        <time>2020-12-05T14:52:21Z</time>
      </trkpt>
      <trkpt lat="49.42678" lon="1.14418">
        <ele>140.490005</ele>
        <time>2020-12-05T14:52:26Z</time>
      </trkpt>
      <trkpt lat="49.42683" lon="1.14441">
        <ele>140.490005</ele>
        <time>2020-12-05T14:52:29Z</time>
      </trkpt>
      <trkpt lat="49.42685" lon="1.14447">
        <ele>140.490005</ele>
        <time>2020-12-05T14:52:30Z</time>
      </trkpt>
      <trkpt lat="49.42688" lon="1.14449">
        <ele>138.570007</ele>
        <time>2020-12-05T14:52:31Z</time>
      </trkpt>
      <trkpt lat="49.42691" lon="1.14446">
        <ele>136.639999</ele>
        <time>2020-12-05T14:52:32Z</time>
      </trkpt>
      <trkpt lat="49.42694" lon="1.14443">
        <ele>136.160004</ele>
        <time>2020-12-05T14:52:33Z</time>
      </trkpt>
      <trkpt lat="49.42699" lon="1.14441">
        <ele>136.160004</ele>
        <time>2020-12-05T14:52:35Z</time>
      </trkpt>
      <trkpt lat="49.427" lon="1.14441">
        <ele>135.679993</ele>
        <time>2020-12-05T14:52:36Z</time>
      </trkpt>
      <trkpt lat="49.42706" lon="1.14442">
        <ele>135.199997</ele>
        <time>2020-12-05T14:52:39Z</time>
      </trkpt>
      <trkpt lat="49.42707" lon="1.14446">
        <ele>135.199997</ele>
        <time>2020-12-05T14:52:40Z</time>
      </trkpt>
      <trkpt lat="49.42708" lon="1.14451">
        <ele>135.199997</ele>
        <time>2020-12-05T14:52:41Z</time>
      </trkpt>
      <trkpt lat="49.42709" lon="1.14456">
        <ele>135.199997</ele>
        <time>2020-12-05T14:52:42Z</time>
      </trkpt>
      <trkpt lat="49.42711" lon="1.14463">
        <ele>135.199997</ele>
        <time>2020-12-05T14:52:43Z</time>
      </trkpt>
      <trkpt lat="49.42713" lon="1.1447">
        <ele>135.199997</ele>
        <time>2020-12-05T14:52:44Z</time>
      </trkpt>
      <trkpt lat="49.42721" lon="1.145">
        <ele>134.720001</ele>
        <time>2020-12-05T14:52:48Z</time>
      </trkpt>
      <trkpt lat="49.42732" lon="1.14529">
        <ele>133.759995</ele>
        <time>2020-12-05T14:52:52Z</time>
      </trkpt>
      <trkpt lat="49.42733" lon="1.14536">
        <ele>133.759995</ele>
        <time>2020-12-05T14:52:53Z</time>
      </trkpt>
      <trkpt lat="49.42735" lon="1.14543">
        <ele>133.759995</ele>
        <time>2020-12-05T14:52:54Z</time>
      </trkpt>
      <trkpt lat="49.42741" lon="1.14564">
        <ele>135.199997</ele>
        <time>2020-12-05T14:52:57Z</time>
      </trkpt>
      <trkpt lat="49.42741" lon="1.14571">
        <ele>135.679993</ele>
        <time>2020-12-05T14:52:58Z</time>
      </trkpt>
      <trkpt lat="49.42741" lon="1.14577">
        <ele>135.679993</ele>
        <time>2020-12-05T14:52:59Z</time>
      </trkpt>
      <trkpt lat="49.4274" lon="1.14584">
        <ele>135.679993</ele>
        <time>2020-12-05T14:53:00Z</time>
      </trkpt>
      <trkpt lat="49.4274" lon="1.14592">
        <ele>135.679993</ele>
        <time>2020-12-05T14:53:01Z</time>
      </trkpt>
      <trkpt lat="49.4274" lon="1.14599">
        <ele>136.160004</ele>
        <time>2020-12-05T14:53:02Z</time>
      </trkpt>
      <trkpt lat="49.4274" lon="1.14613">
        <ele>137.130005</ele>
        <time>2020-12-05T14:53:04Z</time>
      </trkpt>
      <trkpt lat="49.42746" lon="1.14674">
        <ele>136.639999</ele>
        <time>2020-12-05T14:53:12Z</time>
      </trkpt>
      <trkpt lat="49.42748" lon="1.14689">
        <ele>135.199997</ele>
        <time>2020-12-05T14:53:14Z</time>
      </trkpt>
      <trkpt lat="49.42749" lon="1.14697">
        <ele>135.199997</ele>
        <time>2020-12-05T14:53:15Z</time>
      </trkpt>
      <trkpt lat="49.42751" lon="1.14712">
        <ele>134.720001</ele>
        <time>2020-12-05T14:53:17Z</time>
      </trkpt>
      <trkpt lat="49.42754" lon="1.14729">
        <ele>134.720001</ele>
        <time>2020-12-05T14:53:19Z</time>
      </trkpt>
      <trkpt lat="49.42755" lon="1.14738">
        <ele>134.720001</ele>
        <time>2020-12-05T14:53:20Z</time>
      </trkpt>
      <trkpt lat="49.42756" lon="1.14746">
        <ele>134.240005</ele>
        <time>2020-12-05T14:53:21Z</time>
      </trkpt>
      <trkpt lat="49.42759" lon="1.14754">
        <ele>134.240005</ele>
        <time>2020-12-05T14:53:22Z</time>
      </trkpt>
      <trkpt lat="49.42763" lon="1.1476">
        <ele>133.759995</ele>
        <time>2020-12-05T14:53:23Z</time>
      </trkpt>
      <trkpt lat="49.42768" lon="1.14765">
        <ele>133.759995</ele>
        <time>2020-12-05T14:53:24Z</time>
      </trkpt>
      <trkpt lat="49.42773" lon="1.14771">
        <ele>132.320007</ele>
        <time>2020-12-05T14:53:25Z</time>
      </trkpt>
      <trkpt lat="49.42778" lon="1.14779">
        <ele>131.839996</ele>
        <time>2020-12-05T14:53:26Z</time>
      </trkpt>
      <trkpt lat="49.4279" lon="1.14807">
        <ele>129.429993</ele>
        <time>2020-12-05T14:53:29Z</time>
      </trkpt>
      <trkpt lat="49.42793" lon="1.14818">
        <ele>128.470001</ele>
        <time>2020-12-05T14:53:30Z</time>
      </trkpt>
      <trkpt lat="49.42794" lon="1.14829">
        <ele>128.470001</ele>
        <time>2020-12-05T14:53:31Z</time>
      </trkpt>
      <trkpt lat="49.42791" lon="1.14838">
        <ele>128.470001</ele>
        <time>2020-12-05T14:53:32Z</time>
      </trkpt>
      <trkpt lat="49.42787" lon="1.14846">
        <ele>128.470001</ele>
        <time>2020-12-05T14:53:33Z</time>
      </trkpt>
      <trkpt lat="49.42784" lon="1.14853">
        <ele>130.399994</ele>
        <time>2020-12-05T14:53:34Z</time>
      </trkpt>
      <trkpt lat="49.42782" lon="1.14861">
        <ele>130.399994</ele>
        <time>2020-12-05T14:53:35Z</time>
      </trkpt>
      <trkpt lat="49.42781" lon="1.14869">
        <ele>131.360001</ele>
        <time>2020-12-05T14:53:36Z</time>
      </trkpt>
      <trkpt lat="49.42779" lon="1.14877">
        <ele>131.839996</ele>
        <time>2020-12-05T14:53:37Z</time>
      </trkpt>
      <trkpt lat="49.42777" lon="1.14886">
        <ele>131.839996</ele>
        <time>2020-12-05T14:53:38Z</time>
      </trkpt>
      <trkpt lat="49.42777" lon="1.14894">
        <ele>131.839996</ele>
        <time>2020-12-05T14:53:39Z</time>
      </trkpt>
      <trkpt lat="49.42775" lon="1.14901">
        <ele>131.839996</ele>
        <time>2020-12-05T14:53:40Z</time>
      </trkpt>
      <trkpt lat="49.4277" lon="1.1491">
        <ele>131.839996</ele>
        <time>2020-12-05T14:53:42Z</time>
      </trkpt>
      <trkpt lat="49.42762" lon="1.14926">
        <ele>133.279999</ele>
        <time>2020-12-05T14:53:45Z</time>
      </trkpt>
      <trkpt lat="49.42739" lon="1.14967">
        <ele>133.759995</ele>
        <time>2020-12-05T14:53:52Z</time>
      </trkpt>
      <trkpt lat="49.42734" lon="1.14978">
        <ele>134.240005</ele>
        <time>2020-12-05T14:53:54Z</time>
      </trkpt>
      <trkpt lat="49.42724" lon="1.15004">
        <ele>134.240005</ele>
        <time>2020-12-05T14:53:58Z</time>
      </trkpt>
      <trkpt lat="49.42715" lon="1.1502">
        <ele>134.720001</ele>
        <time>2020-12-05T14:54:01Z</time>
      </trkpt>
      <trkpt lat="49.42705" lon="1.15058">
        <ele>135.199997</ele>
        <time>2020-12-05T14:54:07Z</time>
      </trkpt>
      <trkpt lat="49.42702" lon="1.15072">
        <ele>135.199997</ele>
        <time>2020-12-05T14:54:09Z</time>
      </trkpt>
      <trkpt lat="49.4269" lon="1.15106">
        <ele>135.679993</ele>
        <time>2020-12-05T14:54:14Z</time>
      </trkpt>
      <trkpt lat="49.42697" lon="1.15135">
        <ele>133.279999</ele>
        <time>2020-12-05T14:54:19Z</time>
      </trkpt>
      <trkpt lat="49.42712" lon="1.15147">
        <ele>131.839996</ele>
        <time>2020-12-05T14:54:22Z</time>
      </trkpt>
      <trkpt lat="49.42721" lon="1.15163">
        <ele>130.399994</ele>
        <time>2020-12-05T14:54:24Z</time>
      </trkpt>
      <trkpt lat="49.42739" lon="1.15192">
        <ele>126.07</ele>
        <time>2020-12-05T14:54:28Z</time>
      </trkpt>
      <trkpt lat="49.42742" lon="1.15199">
        <ele>125.110001</ele>
        <time>2020-12-05T14:54:29Z</time>
      </trkpt>
      <trkpt lat="49.42746" lon="1.1521">
        <ele>124.150002</ele>
        <time>2020-12-05T14:54:31Z</time>
      </trkpt>
      <trkpt lat="49.42746" lon="1.15216">
        <ele>124.150002</ele>
        <time>2020-12-05T14:54:32Z</time>
      </trkpt>
      <trkpt lat="49.42741" lon="1.1524">
        <ele>125.589996</ele>
        <time>2020-12-05T14:54:35Z</time>
      </trkpt>
      <trkpt lat="49.42741" lon="1.15249">
        <ele>126.07</ele>
        <time>2020-12-05T14:54:36Z</time>
      </trkpt>
      <trkpt lat="49.42741" lon="1.15258">
        <ele>126.07</ele>
        <time>2020-12-05T14:54:37Z</time>
      </trkpt>
      <trkpt lat="49.42742" lon="1.15269">
        <ele>123.669998</ele>
        <time>2020-12-05T14:54:38Z</time>
      </trkpt>
      <trkpt lat="49.42743" lon="1.15279">
        <ele>122.709999</ele>
        <time>2020-12-05T14:54:39Z</time>
      </trkpt>
      <trkpt lat="49.42745" lon="1.1529">
        <ele>122.709999</ele>
        <time>2020-12-05T14:54:40Z</time>
      </trkpt>
      <trkpt lat="49.42751" lon="1.15324">
        <ele>120.779999</ele>
        <time>2020-12-05T14:54:43Z</time>
      </trkpt>
      <trkpt lat="49.42754" lon="1.15347">
        <ele>119.82</ele>
        <time>2020-12-05T14:54:45Z</time>
      </trkpt>
      <trkpt lat="49.42754" lon="1.15359">
        <ele>118.379997</ele>
        <time>2020-12-05T14:54:46Z</time>
      </trkpt>
      <trkpt lat="49.42753" lon="1.1537">
        <ele>117.900002</ele>
        <time>2020-12-05T14:54:47Z</time>
      </trkpt>
      <trkpt lat="49.4275" lon="1.15391">
        <ele>117.900002</ele>
        <time>2020-12-05T14:54:49Z</time>
      </trkpt>
      <trkpt lat="49.42746" lon="1.15423">
        <ele>116.459999</ele>
        <time>2020-12-05T14:54:52Z</time>
      </trkpt>
      <trkpt lat="49.42744" lon="1.15432">
        <ele>116.459999</ele>
        <time>2020-12-05T14:54:53Z</time>
      </trkpt>
      <trkpt lat="49.42742" lon="1.1544">
        <ele>115.5</ele>
        <time>2020-12-05T14:54:54Z</time>
      </trkpt>
      <trkpt lat="49.42738" lon="1.15445">
        <ele>115.5</ele>
        <time>2020-12-05T14:54:55Z</time>
      </trkpt>
      <trkpt lat="49.42725" lon="1.1546">
        <ele>118.860001</ele>
        <time>2020-12-05T14:54:58Z</time>
      </trkpt>
      <trkpt lat="49.42719" lon="1.15508">
        <ele>117.900002</ele>
        <time>2020-12-05T14:55:05Z</time>
      </trkpt>
      <trkpt lat="49.42722" lon="1.15511">
        <ele>117.900002</ele>
        <time>2020-12-05T14:55:06Z</time>
      </trkpt>
      <trkpt lat="49.42735" lon="1.15512">
        <ele>114.529999</ele>
        <time>2020-12-05T14:55:10Z</time>
      </trkpt>
      <trkpt lat="49.42739" lon="1.15482">
        <ele>108.769997</ele>
        <time>2020-12-05T14:55:15Z</time>
      </trkpt>
      <trkpt lat="49.42742" lon="1.15476">
        <ele>108.290001</ele>
        <time>2020-12-05T14:55:16Z</time>
      </trkpt>
      <trkpt lat="49.42752" lon="1.15464">
        <ele>111.169998</ele>
        <time>2020-12-05T14:55:19Z</time>
      </trkpt>
      <trkpt lat="49.4276" lon="1.15455">
        <ele>109.730003</ele>
        <time>2020-12-05T14:55:21Z</time>
      </trkpt>
      <trkpt lat="49.42765" lon="1.15448">
        <ele>108.290001</ele>
        <time>2020-12-05T14:55:22Z</time>
      </trkpt>
      <trkpt lat="49.42769" lon="1.15442">
        <ele>107.32</ele>
        <time>2020-12-05T14:55:23Z</time>
      </trkpt>
      <trkpt lat="49.42775" lon="1.1543">
        <ele>105.400002</ele>
        <time>2020-12-05T14:55:25Z</time>
      </trkpt>
      <trkpt lat="49.42776" lon="1.15424">
        <ele>105.400002</ele>
        <time>2020-12-05T14:55:26Z</time>
      </trkpt>
      <trkpt lat="49.42776" lon="1.15413">
        <ele>106.360001</ele>
        <time>2020-12-05T14:55:29Z</time>
      </trkpt>
      <trkpt lat="49.42782" lon="1.15398">
        <ele>105.879997</ele>
        <time>2020-12-05T14:55:34Z</time>
      </trkpt>
      <trkpt lat="49.42785" lon="1.15395">
        <ele>104.919998</ele>
        <time>2020-12-05T14:55:35Z</time>
      </trkpt>
      <trkpt lat="49.42787" lon="1.1539">
        <ele>103.959999</ele>
        <time>2020-12-05T14:55:36Z</time>
      </trkpt>
      <trkpt lat="49.42787" lon="1.15387">
        <ele>103.480003</ele>
        <time>2020-12-05T14:55:37Z</time>
      </trkpt>
      <trkpt lat="49.42787" lon="1.15389">
        <ele>103.480003</ele>
        <time>2020-12-05T14:55:47Z</time>
      </trkpt>
      <trkpt lat="49.42785" lon="1.15396">
        <ele>105.879997</ele>
        <time>2020-12-05T14:56:00Z</time>
      </trkpt>
      <trkpt lat="49.42788" lon="1.15405">
        <ele>105.879997</ele>
        <time>2020-12-05T14:56:24Z</time>
      </trkpt>
      <trkpt lat="49.42781" lon="1.15412">
        <ele>105.879997</ele>
        <time>2020-12-05T14:56:46Z</time>
      </trkpt>
      <trkpt lat="49.4278" lon="1.15409">
        <ele>105.879997</ele>
        <time>2020-12-05T14:57:04Z</time>
      </trkpt>
      <trkpt lat="49.42778" lon="1.15399">
        <ele>105.879997</ele>
        <time>2020-12-05T14:57:30Z</time>
      </trkpt>
      <trkpt lat="49.42782" lon="1.15395">
        <ele>105.879997</ele>
        <time>2020-12-05T14:57:51Z</time>
      </trkpt>
      <trkpt lat="49.42786" lon="1.15399">
        <ele>105.879997</ele>
        <time>2020-12-05T14:58:20Z</time>
      </trkpt>
      <trkpt lat="49.4279" lon="1.15398">
        <ele>106.360001</ele>
        <time>2020-12-05T14:58:42Z</time>
      </trkpt>
      <trkpt lat="49.42784" lon="1.15388">
        <ele>106.360001</ele>
        <time>2020-12-05T14:59:05Z</time>
      </trkpt>
      <trkpt lat="49.42783" lon="1.15393">
        <ele>104.919998</ele>
        <time>2020-12-05T14:59:29Z</time>
      </trkpt>
      <trkpt lat="49.42786" lon="1.15397">
        <ele>104.919998</ele>
        <time>2020-12-05T14:59:47Z</time>
      </trkpt>
      <trkpt lat="49.42793" lon="1.15401">
        <ele>105.400002</ele>
        <time>2020-12-05T15:00:13Z</time>
      </trkpt>
      <trkpt lat="49.42799" lon="1.15402">
        <ele>104.919998</ele>
        <time>2020-12-05T15:00:37Z</time>
      </trkpt>
      <trkpt lat="49.42794" lon="1.15396">
        <ele>103.959999</ele>
        <time>2020-12-05T15:01:15Z</time>
      </trkpt>
      <trkpt lat="49.42797" lon="1.15396">
        <ele>103.959999</ele>
        <time>2020-12-05T15:01:36Z</time>
      </trkpt>
      <trkpt lat="49.42795" lon="1.15395">
        <ele>105.400002</ele>
        <time>2020-12-05T15:01:54Z</time>
      </trkpt>
      <trkpt lat="49.42791" lon="1.15398">
        <ele>105.879997</ele>
        <time>2020-12-05T15:02:20Z</time>
      </trkpt>
      <trkpt lat="49.42791" lon="1.15396">
        <ele>105.879997</ele>
        <time>2020-12-05T15:02:32Z</time>
      </trkpt>
      <trkpt lat="49.42791" lon="1.15395">
        <ele>104.440002</ele>
        <time>2020-12-05T15:02:35Z</time>
      </trkpt>
      <trkpt lat="49.42791" lon="1.15392">
        <ele>103.959999</ele>
        <time>2020-12-05T15:02:40Z</time>
      </trkpt>
      <trkpt lat="49.42796" lon="1.15389">
        <ele>103.959999</ele>
        <time>2020-12-05T15:02:53Z</time>
      </trkpt>
      <trkpt lat="49.42794" lon="1.1539">
        <ele>104.440002</ele>
        <time>2020-12-05T15:03:16Z</time>
      </trkpt>
      <trkpt lat="49.42796" lon="1.15389">
        <ele>104.440002</ele>
        <time>2020-12-05T15:03:37Z</time>
      </trkpt>
      <trkpt lat="49.42796" lon="1.15386">
        <ele>104.440002</ele>
        <time>2020-12-05T15:03:54Z</time>
      </trkpt>
      <trkpt lat="49.42796" lon="1.15384">
        <ele>104.440002</ele>
        <time>2020-12-05T15:03:55Z</time>
      </trkpt>
      <trkpt lat="49.42796" lon="1.15382">
        <ele>104.440002</ele>
        <time>2020-12-05T15:03:56Z</time>
      </trkpt>
      <trkpt lat="49.42796" lon="1.15376">
        <ele>105.879997</ele>
        <time>2020-12-05T15:03:59Z</time>
      </trkpt>
      <trkpt lat="49.42799" lon="1.15361">
        <ele>103.959999</ele>
        <time>2020-12-05T15:04:05Z</time>
      </trkpt>
      <trkpt lat="49.428" lon="1.15356">
        <ele>102.519997</ele>
        <time>2020-12-05T15:04:07Z</time>
      </trkpt>
      <trkpt lat="49.42805" lon="1.15351">
        <ele>101.080002</ele>
        <time>2020-12-05T15:04:16Z</time>
      </trkpt>
      <trkpt lat="49.42806" lon="1.1535">
        <ele>99.629997</ele>
        <time>2020-12-05T15:04:18Z</time>
      </trkpt>
      <trkpt lat="49.42803" lon="1.15347">
        <ele>99.629997</ele>
        <time>2020-12-05T15:04:29Z</time>
      </trkpt>
      <trkpt lat="49.42804" lon="1.15345">
        <ele>99.150002</ele>
        <time>2020-12-05T15:04:31Z</time>
      </trkpt>
      <trkpt lat="49.42806" lon="1.15342">
        <ele>98.190002</ele>
        <time>2020-12-05T15:04:32Z</time>
      </trkpt>
      <trkpt lat="49.42813" lon="1.15331">
        <ele>96.75</ele>
        <time>2020-12-05T15:04:35Z</time>
      </trkpt>
      <trkpt lat="49.4282" lon="1.15326">
        <ele>96.269997</ele>
        <time>2020-12-05T15:04:43Z</time>
      </trkpt>
      <trkpt lat="49.42827" lon="1.15322">
        <ele>96.75</ele>
        <time>2020-12-05T15:05:02Z</time>
      </trkpt>
      <trkpt lat="49.42829" lon="1.15322">
        <ele>96.75</ele>
        <time>2020-12-05T15:05:08Z</time>
      </trkpt>
      <trkpt lat="49.42831" lon="1.15327">
        <ele>96.75</ele>
        <time>2020-12-05T15:05:11Z</time>
      </trkpt>
      <trkpt lat="49.42832" lon="1.15332">
        <ele>96.75</ele>
        <time>2020-12-05T15:05:13Z</time>
      </trkpt>
      <trkpt lat="49.42832" lon="1.15335">
        <ele>96.75</ele>
        <time>2020-12-05T15:05:14Z</time>
      </trkpt>
      <trkpt lat="49.42832" lon="1.15338">
        <ele>96.75</ele>
        <time>2020-12-05T15:05:15Z</time>
      </trkpt>
      <trkpt lat="49.42831" lon="1.1534">
        <ele>96.75</ele>
        <time>2020-12-05T15:05:16Z</time>
      </trkpt>
      <trkpt lat="49.42819" lon="1.15371">
        <ele>100.110001</ele>
        <time>2020-12-05T15:05:25Z</time>
      </trkpt>
      <trkpt lat="49.42805" lon="1.15402">
        <ele>101.559998</ele>
        <time>2020-12-05T15:05:37Z</time>
      </trkpt>
      <trkpt lat="49.42804" lon="1.15403">
        <ele>102.040001</ele>
        <time>2020-12-05T15:05:38Z</time>
      </trkpt>
      <trkpt lat="49.42802" lon="1.15404">
        <ele>102.040001</ele>
        <time>2020-12-05T15:05:39Z</time>
      </trkpt>
      <trkpt lat="49.42801" lon="1.15406">
        <ele>102.519997</ele>
        <time>2020-12-05T15:05:40Z</time>
      </trkpt>
      <trkpt lat="49.428" lon="1.15407">
        <ele>102.519997</ele>
        <time>2020-12-05T15:05:41Z</time>
      </trkpt>
      <trkpt lat="49.428" lon="1.15409">
        <ele>102.519997</ele>
        <time>2020-12-05T15:05:42Z</time>
      </trkpt>
      <trkpt lat="49.42789" lon="1.15436">
        <ele>104.440002</ele>
        <time>2020-12-05T15:05:52Z</time>
      </trkpt>
      <trkpt lat="49.42788" lon="1.15437">
        <ele>104.440002</ele>
        <time>2020-12-05T15:05:53Z</time>
      </trkpt>
      <trkpt lat="49.42785" lon="1.15442">
        <ele>103.959999</ele>
        <time>2020-12-05T15:05:59Z</time>
      </trkpt>
      <trkpt lat="49.42801" lon="1.15411">
        <ele>103</ele>
        <time>2020-12-05T15:06:08Z</time>
      </trkpt>
      <trkpt lat="49.42825" lon="1.15351">
        <ele>99.629997</ele>
        <time>2020-12-05T15:06:15Z</time>
      </trkpt>
      <trkpt lat="49.42846" lon="1.15303">
        <ele>95.790001</ele>
        <time>2020-12-05T15:06:21Z</time>
      </trkpt>
      <trkpt lat="49.42851" lon="1.15289">
        <ele>93.389999</ele>
        <time>2020-12-05T15:06:28Z</time>
      </trkpt>
      <trkpt lat="49.42849" lon="1.1529">
        <ele>93.389999</ele>
        <time>2020-12-05T15:06:31Z</time>
      </trkpt>
      <trkpt lat="49.42848" lon="1.15292">
        <ele>93.389999</ele>
        <time>2020-12-05T15:06:32Z</time>
      </trkpt>
      <trkpt lat="49.42846" lon="1.15294">
        <ele>93.389999</ele>
        <time>2020-12-05T15:06:33Z</time>
      </trkpt>
      <trkpt lat="49.42845" lon="1.15296">
        <ele>94.349998</ele>
        <time>2020-12-05T15:06:34Z</time>
      </trkpt>
      <trkpt lat="49.42843" lon="1.153">
        <ele>94.830002</ele>
        <time>2020-12-05T15:06:35Z</time>
      </trkpt>
      <trkpt lat="49.42843" lon="1.15304">
        <ele>94.830002</ele>
        <time>2020-12-05T15:06:36Z</time>
      </trkpt>
      <trkpt lat="49.42841" lon="1.15308">
        <ele>95.790001</ele>
        <time>2020-12-05T15:06:37Z</time>
      </trkpt>
      <trkpt lat="49.4284" lon="1.15312">
        <ele>95.790001</ele>
        <time>2020-12-05T15:06:38Z</time>
      </trkpt>
      <trkpt lat="49.42826" lon="1.15354">
        <ele>99.150002</ele>
        <time>2020-12-05T15:06:49Z</time>
      </trkpt>
      <trkpt lat="49.42812" lon="1.1539">
        <ele>101.559998</ele>
        <time>2020-12-05T15:06:59Z</time>
      </trkpt>
      <trkpt lat="49.42795" lon="1.15427">
        <ele>103.480003</ele>
        <time>2020-12-05T15:07:10Z</time>
      </trkpt>
      <trkpt lat="49.42776" lon="1.15479">
        <ele>107.32</ele>
        <time>2020-12-05T15:07:23Z</time>
      </trkpt>
      <trkpt lat="49.42771" lon="1.15496">
        <ele>108.290001</ele>
        <time>2020-12-05T15:07:27Z</time>
      </trkpt>
      <trkpt lat="49.42768" lon="1.15498">
        <ele>108.290001</ele>
        <time>2020-12-05T15:07:28Z</time>
      </trkpt>
      <trkpt lat="49.42766" lon="1.15499">
        <ele>108.290001</ele>
        <time>2020-12-05T15:07:29Z</time>
      </trkpt>
      <trkpt lat="49.42764" lon="1.15498">
        <ele>109.25</ele>
        <time>2020-12-05T15:07:30Z</time>
      </trkpt>
      <trkpt lat="49.42762" lon="1.15497">
        <ele>109.25</ele>
        <time>2020-12-05T15:07:31Z</time>
      </trkpt>
      <trkpt lat="49.4276" lon="1.15496">
        <ele>109.730003</ele>
        <time>2020-12-05T15:07:32Z</time>
      </trkpt>
      <trkpt lat="49.42752" lon="1.15487">
        <ele>109.730003</ele>
        <time>2020-12-05T15:07:36Z</time>
      </trkpt>
      <trkpt lat="49.42752" lon="1.15484">
        <ele>109.730003</ele>
        <time>2020-12-05T15:07:37Z</time>
      </trkpt>
      <trkpt lat="49.42751" lon="1.15481">
        <ele>109.730003</ele>
        <time>2020-12-05T15:07:38Z</time>
      </trkpt>
      <trkpt lat="49.42751" lon="1.15479">
        <ele>110.690002</ele>
        <time>2020-12-05T15:07:39Z</time>
      </trkpt>
      <trkpt lat="49.4275" lon="1.15478">
        <ele>110.690002</ele>
        <time>2020-12-05T15:07:40Z</time>
      </trkpt>
      <trkpt lat="49.42747" lon="1.1548">
        <ele>110.690002</ele>
        <time>2020-12-05T15:07:42Z</time>
      </trkpt>
      <trkpt lat="49.42744" lon="1.15482">
        <ele>110.690002</ele>
        <time>2020-12-05T15:07:45Z</time>
      </trkpt>
      <trkpt lat="49.42754" lon="1.15473">
        <ele>112.610001</ele>
        <time>2020-12-05T15:07:52Z</time>
      </trkpt>
      <trkpt lat="49.42761" lon="1.15469">
        <ele>113.089996</ele>
        <time>2020-12-05T15:08:03Z</time>
      </trkpt>
      <trkpt lat="49.42764" lon="1.15463">
        <ele>113.089996</ele>
        <time>2020-12-05T15:08:17Z</time>
      </trkpt>
      <trkpt lat="49.42783" lon="1.15433">
        <ele>107.809998</ele>
        <time>2020-12-05T15:08:24Z</time>
      </trkpt>
      <trkpt lat="49.42784" lon="1.15426">
        <ele>107.32</ele>
        <time>2020-12-05T15:08:26Z</time>
      </trkpt>
      <trkpt lat="49.42784" lon="1.15424">
        <ele>107.32</ele>
        <time>2020-12-05T15:08:27Z</time>
      </trkpt>
      <trkpt lat="49.42784" lon="1.15422">
        <ele>108.769997</ele>
        <time>2020-12-05T15:08:28Z</time>
      </trkpt>
      <trkpt lat="49.42784" lon="1.1542">
        <ele>108.769997</ele>
        <time>2020-12-05T15:08:29Z</time>
      </trkpt>
      <trkpt lat="49.42783" lon="1.15418">
        <ele>109.25</ele>
        <time>2020-12-05T15:08:30Z</time>
      </trkpt>
      <trkpt lat="49.42784" lon="1.15415">
        <ele>109.25</ele>
        <time>2020-12-05T15:08:31Z</time>
      </trkpt>
      <trkpt lat="49.42784" lon="1.15412">
        <ele>109.25</ele>
        <time>2020-12-05T15:08:32Z</time>
      </trkpt>
      <trkpt lat="49.42785" lon="1.15409">
        <ele>109.25</ele>
        <time>2020-12-05T15:08:33Z</time>
      </trkpt>
      <trkpt lat="49.42788" lon="1.15405">
        <ele>109.25</ele>
        <time>2020-12-05T15:08:34Z</time>
      </trkpt>
      <trkpt lat="49.42791" lon="1.15401">
        <ele>107.32</ele>
        <time>2020-12-05T15:08:35Z</time>
      </trkpt>
      <trkpt lat="49.42793" lon="1.15396">
        <ele>106.360001</ele>
        <time>2020-12-05T15:08:36Z</time>
      </trkpt>
      <trkpt lat="49.42794" lon="1.15391">
        <ele>106.360001</ele>
        <time>2020-12-05T15:08:37Z</time>
      </trkpt>
      <trkpt lat="49.42794" lon="1.15386">
        <ele>106.360001</ele>
        <time>2020-12-05T15:08:38Z</time>
      </trkpt>
      <trkpt lat="49.42794" lon="1.15381">
        <ele>106.360001</ele>
        <time>2020-12-05T15:08:39Z</time>
      </trkpt>
      <trkpt lat="49.42795" lon="1.15377">
        <ele>106.360001</ele>
        <time>2020-12-05T15:08:40Z</time>
      </trkpt>
      <trkpt lat="49.42799" lon="1.15356">
        <ele>104.440002</ele>
        <time>2020-12-05T15:08:45Z</time>
      </trkpt>
      <trkpt lat="49.42803" lon="1.15349">
        <ele>100.599998</ele>
        <time>2020-12-05T15:08:49Z</time>
      </trkpt>
      <trkpt lat="49.42806" lon="1.15343">
        <ele>98.669998</ele>
        <time>2020-12-05T15:08:52Z</time>
      </trkpt>
      <trkpt lat="49.42807" lon="1.15339">
        <ele>98.669998</ele>
        <time>2020-12-05T15:08:53Z</time>
      </trkpt>
      <trkpt lat="49.42808" lon="1.15335">
        <ele>98.190002</ele>
        <time>2020-12-05T15:08:54Z</time>
      </trkpt>
      <trkpt lat="49.4281" lon="1.15331">
        <ele>97.709999</ele>
        <time>2020-12-05T15:08:55Z</time>
      </trkpt>
      <trkpt lat="49.42813" lon="1.15329">
        <ele>97.709999</ele>
        <time>2020-12-05T15:08:56Z</time>
      </trkpt>
      <trkpt lat="49.42819" lon="1.15328">
        <ele>97.230003</ele>
        <time>2020-12-05T15:08:58Z</time>
      </trkpt>
      <trkpt lat="49.42822" lon="1.15324">
        <ele>97.230003</ele>
        <time>2020-12-05T15:08:59Z</time>
      </trkpt>
      <trkpt lat="49.42824" lon="1.1532">
        <ele>96.75</ele>
        <time>2020-12-05T15:09:00Z</time>
      </trkpt>
      <trkpt lat="49.42825" lon="1.15315">
        <ele>96.75</ele>
        <time>2020-12-05T15:09:01Z</time>
      </trkpt>
      <trkpt lat="49.42826" lon="1.15309">
        <ele>96.269997</ele>
        <time>2020-12-05T15:09:02Z</time>
      </trkpt>
      <trkpt lat="49.42827" lon="1.15304">
        <ele>96.269997</ele>
        <time>2020-12-05T15:09:03Z</time>
      </trkpt>
      <trkpt lat="49.4283" lon="1.153">
        <ele>96.269997</ele>
        <time>2020-12-05T15:09:04Z</time>
      </trkpt>
      <trkpt lat="49.42833" lon="1.15298">
        <ele>95.790001</ele>
        <time>2020-12-05T15:09:05Z</time>
      </trkpt>
      <trkpt lat="49.42836" lon="1.15296">
        <ele>95.790001</ele>
        <time>2020-12-05T15:09:06Z</time>
      </trkpt>
      <trkpt lat="49.42839" lon="1.15295">
        <ele>95.309998</ele>
        <time>2020-12-05T15:09:07Z</time>
      </trkpt>
      <trkpt lat="49.42841" lon="1.15292">
        <ele>95.309998</ele>
        <time>2020-12-05T15:09:08Z</time>
      </trkpt>
      <trkpt lat="49.42844" lon="1.15289">
        <ele>94.830002</ele>
        <time>2020-12-05T15:09:09Z</time>
      </trkpt>
      <trkpt lat="49.42847" lon="1.15285">
        <ele>94.349998</ele>
        <time>2020-12-05T15:09:10Z</time>
      </trkpt>
      <trkpt lat="49.42848" lon="1.15281">
        <ele>94.349998</ele>
        <time>2020-12-05T15:09:11Z</time>
      </trkpt>
      <trkpt lat="49.42848" lon="1.15278">
        <ele>94.349998</ele>
        <time>2020-12-05T15:09:12Z</time>
      </trkpt>
      <trkpt lat="49.42845" lon="1.15272">
        <ele>95.790001</ele>
        <time>2020-12-05T15:09:15Z</time>
      </trkpt>
      <trkpt lat="49.42843" lon="1.15268">
        <ele>96.269997</ele>
        <time>2020-12-05T15:09:16Z</time>
      </trkpt>
      <trkpt lat="49.42842" lon="1.15265">
        <ele>96.75</ele>
        <time>2020-12-05T15:09:17Z</time>
      </trkpt>
      <trkpt lat="49.42841" lon="1.15262">
        <ele>97.709999</ele>
        <time>2020-12-05T15:09:19Z</time>
      </trkpt>
      <trkpt lat="49.42842" lon="1.15251">
        <ele>99.629997</ele>
        <time>2020-12-05T15:09:27Z</time>
      </trkpt>
      <trkpt lat="49.42842" lon="1.15248">
        <ele>100.110001</ele>
        <time>2020-12-05T15:09:28Z</time>
      </trkpt>
      <trkpt lat="49.42842" lon="1.15246">
        <ele>100.110001</ele>
        <time>2020-12-05T15:09:29Z</time>
      </trkpt>
      <trkpt lat="49.42842" lon="1.15243">
        <ele>100.110001</ele>
        <time>2020-12-05T15:09:30Z</time>
      </trkpt>
      <trkpt lat="49.42842" lon="1.1524">
        <ele>101.080002</ele>
        <time>2020-12-05T15:09:31Z</time>
      </trkpt>
      <trkpt lat="49.42842" lon="1.15238">
        <ele>101.080002</ele>
        <time>2020-12-05T15:09:32Z</time>
      </trkpt>
      <trkpt lat="49.42842" lon="1.15235">
        <ele>101.080002</ele>
        <time>2020-12-05T15:09:33Z</time>
      </trkpt>
      <trkpt lat="49.42842" lon="1.15232">
        <ele>101.080002</ele>
        <time>2020-12-05T15:09:34Z</time>
      </trkpt>
      <trkpt lat="49.42842" lon="1.15225">
        <ele>101.080002</ele>
        <time>2020-12-05T15:09:37Z</time>
      </trkpt>
      <trkpt lat="49.42843" lon="1.15223">
        <ele>101.080002</ele>
        <time>2020-12-05T15:09:38Z</time>
      </trkpt>
      <trkpt lat="49.42845" lon="1.1522">
        <ele>101.080002</ele>
        <time>2020-12-05T15:09:39Z</time>
      </trkpt>
      <trkpt lat="49.42846" lon="1.15218">
        <ele>101.080002</ele>
        <time>2020-12-05T15:09:40Z</time>
      </trkpt>
      <trkpt lat="49.42848" lon="1.15216">
        <ele>101.080002</ele>
        <time>2020-12-05T15:09:41Z</time>
      </trkpt>
      <trkpt lat="49.42849" lon="1.15214">
        <ele>99.629997</ele>
        <time>2020-12-05T15:09:42Z</time>
      </trkpt>
      <trkpt lat="49.42854" lon="1.15202">
        <ele>98.669998</ele>
        <time>2020-12-05T15:09:45Z</time>
      </trkpt>
      <trkpt lat="49.42855" lon="1.15199">
        <ele>98.669998</ele>
        <time>2020-12-05T15:09:46Z</time>
      </trkpt>
      <trkpt lat="49.42856" lon="1.15196">
        <ele>98.669998</ele>
        <time>2020-12-05T15:09:47Z</time>
      </trkpt>
      <trkpt lat="49.4286" lon="1.15186">
        <ele>98.669998</ele>
        <time>2020-12-05T15:09:52Z</time>
      </trkpt>
      <trkpt lat="49.42864" lon="1.15182">
        <ele>97.230003</ele>
        <time>2020-12-05T15:09:55Z</time>
      </trkpt>
      <trkpt lat="49.42871" lon="1.1516">
        <ele>97.709999</ele>
        <time>2020-12-05T15:10:01Z</time>
      </trkpt>
      <trkpt lat="49.42873" lon="1.15156">
        <ele>97.709999</ele>
        <time>2020-12-05T15:10:02Z</time>
      </trkpt>
      <trkpt lat="49.42876" lon="1.15153">
        <ele>96.75</ele>
        <time>2020-12-05T15:10:03Z</time>
      </trkpt>
      <trkpt lat="49.4288" lon="1.15151">
        <ele>95.790001</ele>
        <time>2020-12-05T15:10:04Z</time>
      </trkpt>
      <trkpt lat="49.42882" lon="1.15148">
        <ele>94.830002</ele>
        <time>2020-12-05T15:10:05Z</time>
      </trkpt>
      <trkpt lat="49.42884" lon="1.15144">
        <ele>94.349998</ele>
        <time>2020-12-05T15:10:06Z</time>
      </trkpt>
      <trkpt lat="49.42886" lon="1.15134">
        <ele>94.349998</ele>
        <time>2020-12-05T15:10:10Z</time>
      </trkpt>
      <trkpt lat="49.42886" lon="1.15119">
        <ele>96.269997</ele>
        <time>2020-12-05T15:10:16Z</time>
      </trkpt>
      <trkpt lat="49.42885" lon="1.1511">
        <ele>97.709999</ele>
        <time>2020-12-05T15:10:21Z</time>
      </trkpt>
      <trkpt lat="49.42884" lon="1.15104">
        <ele>98.669998</ele>
        <time>2020-12-05T15:10:24Z</time>
      </trkpt>
      <trkpt lat="49.42881" lon="1.15094">
        <ele>102.040001</ele>
        <time>2020-12-05T15:10:29Z</time>
      </trkpt>
      <trkpt lat="49.42881" lon="1.15074">
        <ele>105.400002</ele>
        <time>2020-12-05T15:10:38Z</time>
      </trkpt>
      <trkpt lat="49.42881" lon="1.15066">
        <ele>106.360001</ele>
        <time>2020-12-05T15:10:42Z</time>
      </trkpt>
      <trkpt lat="49.42881" lon="1.15041">
        <ele>109.730003</ele>
        <time>2020-12-05T15:10:55Z</time>
      </trkpt>
      <trkpt lat="49.42881" lon="1.15028">
        <ele>109.730003</ele>
        <time>2020-12-05T15:11:00Z</time>
      </trkpt>
      <trkpt lat="49.42884" lon="1.14981">
        <ele>108.290001</ele>
        <time>2020-12-05T15:11:10Z</time>
      </trkpt>
      <trkpt lat="49.42886" lon="1.14966">
        <ele>107.32</ele>
        <time>2020-12-05T15:11:12Z</time>
      </trkpt>
      <trkpt lat="49.42883" lon="1.14941">
        <ele>106.839996</ele>
        <time>2020-12-05T15:11:17Z</time>
      </trkpt>
      <trkpt lat="49.4288" lon="1.14929">
        <ele>106.839996</ele>
        <time>2020-12-05T15:11:20Z</time>
      </trkpt>
      <trkpt lat="49.42872" lon="1.14918">
        <ele>109.730003</ele>
        <time>2020-12-05T15:11:26Z</time>
      </trkpt>
      <trkpt lat="49.42866" lon="1.14902">
        <ele>111.650002</ele>
        <time>2020-12-05T15:11:33Z</time>
      </trkpt>
      <trkpt lat="49.42859" lon="1.14893">
        <ele>114.529999</ele>
        <time>2020-12-05T15:11:38Z</time>
      </trkpt>
      <trkpt lat="49.42855" lon="1.14884">
        <ele>115.980003</ele>
        <time>2020-12-05T15:11:42Z</time>
      </trkpt>
      <trkpt lat="49.42851" lon="1.1488">
        <ele>117.419998</ele>
        <time>2020-12-05T15:11:45Z</time>
      </trkpt>
      <trkpt lat="49.4284" lon="1.14867">
        <ele>120.300003</ele>
        <time>2020-12-05T15:11:52Z</time>
      </trkpt>
      <trkpt lat="49.42831" lon="1.14857">
        <ele>123.190002</ele>
        <time>2020-12-05T15:11:58Z</time>
      </trkpt>
      <trkpt lat="49.42821" lon="1.14849">
        <ele>126.07</ele>
        <time>2020-12-05T15:12:05Z</time>
      </trkpt>
      <trkpt lat="49.42814" lon="1.14841">
        <ele>127.510002</ele>
        <time>2020-12-05T15:12:12Z</time>
      </trkpt>
      <trkpt lat="49.42811" lon="1.14818">
        <ele>129.919998</ele>
        <time>2020-12-05T15:12:24Z</time>
      </trkpt>
      <trkpt lat="49.42805" lon="1.1481">
        <ele>130.399994</ele>
        <time>2020-12-05T15:12:44Z</time>
      </trkpt>
      <trkpt lat="49.42806" lon="1.14809">
        <ele>130.399994</ele>
        <time>2020-12-05T15:12:45Z</time>
      </trkpt>
      <trkpt lat="49.42812" lon="1.14808">
        <ele>130.399994</ele>
        <time>2020-12-05T15:12:49Z</time>
      </trkpt>
      <trkpt lat="49.42826" lon="1.14808">
        <ele>128.470001</ele>
        <time>2020-12-05T15:12:53Z</time>
      </trkpt>
      <trkpt lat="49.42829" lon="1.14805">
        <ele>128.470001</ele>
        <time>2020-12-05T15:12:54Z</time>
      </trkpt>
      <trkpt lat="49.4286" lon="1.14769">
        <ele>128.949997</ele>
        <time>2020-12-05T15:13:06Z</time>
      </trkpt>
      <trkpt lat="49.42874" lon="1.14742">
        <ele>128.470001</ele>
        <time>2020-12-05T15:13:11Z</time>
      </trkpt>
      <trkpt lat="49.42892" lon="1.14712">
        <ele>126.07</ele>
        <time>2020-12-05T15:13:15Z</time>
      </trkpt>
      <trkpt lat="49.42897" lon="1.14669">
        <ele>123.669998</ele>
        <time>2020-12-05T15:13:20Z</time>
      </trkpt>
      <trkpt lat="49.42892" lon="1.14644">
        <ele>123.669998</ele>
        <time>2020-12-05T15:13:23Z</time>
      </trkpt>
      <trkpt lat="49.42877" lon="1.14615">
        <ele>122.709999</ele>
        <time>2020-12-05T15:13:28Z</time>
      </trkpt>
      <trkpt lat="49.42853" lon="1.14587">
        <ele>124.629997</ele>
        <time>2020-12-05T15:13:34Z</time>
      </trkpt>
      <trkpt lat="49.42846" lon="1.14576">
        <ele>125.110001</ele>
        <time>2020-12-05T15:13:36Z</time>
      </trkpt>
      <trkpt lat="49.4284" lon="1.14567">
        <ele>126.07</ele>
        <time>2020-12-05T15:13:38Z</time>
      </trkpt>
      <trkpt lat="49.42826" lon="1.14536">
        <ele>124.629997</ele>
        <time>2020-12-05T15:13:43Z</time>
      </trkpt>
      <trkpt lat="49.42822" lon="1.14526">
        <ele>124.150002</ele>
        <time>2020-12-05T15:13:44Z</time>
      </trkpt>
      <trkpt lat="49.4282" lon="1.14521">
        <ele>124.150002</ele>
        <time>2020-12-05T15:13:45Z</time>
      </trkpt>
      <trkpt lat="49.42817" lon="1.14513">
        <ele>123.669998</ele>
        <time>2020-12-05T15:13:46Z</time>
      </trkpt>
      <trkpt lat="49.42815" lon="1.14505">
        <ele>123.669998</ele>
        <time>2020-12-05T15:13:47Z</time>
      </trkpt>
      <trkpt lat="49.42813" lon="1.14497">
        <ele>123.190002</ele>
        <time>2020-12-05T15:13:48Z</time>
      </trkpt>
      <trkpt lat="49.42811" lon="1.1449">
        <ele>123.190002</ele>
        <time>2020-12-05T15:13:49Z</time>
      </trkpt>
      <trkpt lat="49.42806" lon="1.14477">
        <ele>122.220001</ele>
        <time>2020-12-05T15:13:51Z</time>
      </trkpt>
      <trkpt lat="49.42803" lon="1.14473">
        <ele>122.220001</ele>
        <time>2020-12-05T15:13:52Z</time>
      </trkpt>
      <trkpt lat="49.428" lon="1.14469">
        <ele>122.220001</ele>
        <time>2020-12-05T15:13:53Z</time>
      </trkpt>
      <trkpt lat="49.42798" lon="1.14463">
        <ele>122.220001</ele>
        <time>2020-12-05T15:13:54Z</time>
      </trkpt>
      <trkpt lat="49.42796" lon="1.14456">
        <ele>121.260002</ele>
        <time>2020-12-05T15:13:55Z</time>
      </trkpt>
      <trkpt lat="49.4279" lon="1.14443">
        <ele>120.779999</ele>
        <time>2020-12-05T15:13:58Z</time>
      </trkpt>
      <trkpt lat="49.42786" lon="1.14444">
        <ele>121.260002</ele>
        <time>2020-12-05T15:14:10Z</time>
      </trkpt>
      <trkpt lat="49.42786" lon="1.14446">
        <ele>121.260002</ele>
        <time>2020-12-05T15:14:20Z</time>
      </trkpt>
      <trkpt lat="49.42782" lon="1.14442">
        <ele>121.260002</ele>
        <time>2020-12-05T15:14:34Z</time>
      </trkpt>
      <trkpt lat="49.42778" lon="1.1444">
        <ele>121.260002</ele>
        <time>2020-12-05T15:14:47Z</time>
      </trkpt>
      <trkpt lat="49.4278" lon="1.14439">
        <ele>121.739998</ele>
        <time>2020-12-05T15:14:59Z</time>
      </trkpt>
      <trkpt lat="49.42785" lon="1.14447">
        <ele>121.739998</ele>
        <time>2020-12-05T15:15:18Z</time>
      </trkpt>
      <trkpt lat="49.42784" lon="1.14441">
        <ele>122.220001</ele>
        <time>2020-12-05T15:15:34Z</time>
      </trkpt>
      <trkpt lat="49.42783" lon="1.14438">
        <ele>122.220001</ele>
        <time>2020-12-05T15:15:35Z</time>
      </trkpt>
      <trkpt lat="49.4278" lon="1.14433">
        <ele>123.190002</ele>
        <time>2020-12-05T15:15:37Z</time>
      </trkpt>
      <trkpt lat="49.42778" lon="1.1443">
        <ele>123.669998</ele>
        <time>2020-12-05T15:15:38Z</time>
      </trkpt>
      <trkpt lat="49.42777" lon="1.14427">
        <ele>124.150002</ele>
        <time>2020-12-05T15:15:39Z</time>
      </trkpt>
      <trkpt lat="49.42776" lon="1.14425">
        <ele>125.110001</ele>
        <time>2020-12-05T15:15:40Z</time>
      </trkpt>
      <trkpt lat="49.42776" lon="1.14422">
        <ele>125.589996</ele>
        <time>2020-12-05T15:15:42Z</time>
      </trkpt>
      <trkpt lat="49.42774" lon="1.14418">
        <ele>125.589996</ele>
        <time>2020-12-05T15:15:50Z</time>
      </trkpt>
      <trkpt lat="49.42774" lon="1.14415">
        <ele>125.589996</ele>
        <time>2020-12-05T15:15:51Z</time>
      </trkpt>
      <trkpt lat="49.42773" lon="1.14413">
        <ele>126.07</ele>
        <time>2020-12-05T15:15:52Z</time>
      </trkpt>
      <trkpt lat="49.42771" lon="1.1441">
        <ele>126.07</ele>
        <time>2020-12-05T15:15:53Z</time>
      </trkpt>
      <trkpt lat="49.42769" lon="1.14407">
        <ele>126.550003</ele>
        <time>2020-12-05T15:15:54Z</time>
      </trkpt>
      <trkpt lat="49.42767" lon="1.14405">
        <ele>126.550003</ele>
        <time>2020-12-05T15:15:55Z</time>
      </trkpt>
      <trkpt lat="49.42766" lon="1.14403">
        <ele>127.029999</ele>
        <time>2020-12-05T15:15:56Z</time>
      </trkpt>
      <trkpt lat="49.42757" lon="1.14394">
        <ele>130.399994</ele>
        <time>2020-12-05T15:16:02Z</time>
      </trkpt>
      <trkpt lat="49.42756" lon="1.14394">
        <ele>130.880005</ele>
        <time>2020-12-05T15:16:03Z</time>
      </trkpt>
      <trkpt lat="49.42755" lon="1.14394">
        <ele>131.360001</ele>
        <time>2020-12-05T15:16:04Z</time>
      </trkpt>
      <trkpt lat="49.42748" lon="1.14398">
        <ele>133.759995</ele>
        <time>2020-12-05T15:16:09Z</time>
      </trkpt>
      <trkpt lat="49.4273" lon="1.14406">
        <ele>138.089996</ele>
        <time>2020-12-05T15:16:18Z</time>
      </trkpt>
      <trkpt lat="49.42726" lon="1.14408">
        <ele>139.050003</ele>
        <time>2020-12-05T15:16:20Z</time>
      </trkpt>
      <trkpt lat="49.42706" lon="1.14383">
        <ele>139.529999</ele>
        <time>2020-12-05T15:16:32Z</time>
      </trkpt>
      <trkpt lat="49.427" lon="1.1437">
        <ele>140.009995</ele>
        <time>2020-12-05T15:16:36Z</time>
      </trkpt>
      <trkpt lat="49.427" lon="1.14366">
        <ele>140.009995</ele>
        <time>2020-12-05T15:16:37Z</time>
      </trkpt>
      <trkpt lat="49.42699" lon="1.14363">
        <ele>140.009995</ele>
        <time>2020-12-05T15:16:38Z</time>
      </trkpt>
      <trkpt lat="49.42699" lon="1.14359">
        <ele>140.009995</ele>
        <time>2020-12-05T15:16:39Z</time>
      </trkpt>
      <trkpt lat="49.42698" lon="1.14356">
        <ele>140.009995</ele>
        <time>2020-12-05T15:16:40Z</time>
      </trkpt>
      <trkpt lat="49.42686" lon="1.14295">
        <ele>140.009995</ele>
        <time>2020-12-05T15:16:52Z</time>
      </trkpt>
      <trkpt lat="49.42675" lon="1.14243">
        <ele>138.089996</ele>
        <time>2020-12-05T15:17:00Z</time>
      </trkpt>
      <trkpt lat="49.42671" lon="1.14229">
        <ele>138.089996</ele>
        <time>2020-12-05T15:17:02Z</time>
      </trkpt>
      <trkpt lat="49.42669" lon="1.14223">
        <ele>138.089996</ele>
        <time>2020-12-05T15:17:03Z</time>
      </trkpt>
      <trkpt lat="49.42666" lon="1.14219">
        <ele>138.089996</ele>
        <time>2020-12-05T15:17:04Z</time>
      </trkpt>
      <trkpt lat="49.42663" lon="1.14215">
        <ele>139.529999</ele>
        <time>2020-12-05T15:17:05Z</time>
      </trkpt>
      <trkpt lat="49.4266" lon="1.14212">
        <ele>139.529999</ele>
        <time>2020-12-05T15:17:06Z</time>
      </trkpt>
      <trkpt lat="49.42658" lon="1.14209">
        <ele>139.529999</ele>
        <time>2020-12-05T15:17:07Z</time>
      </trkpt>
      <trkpt lat="49.42658" lon="1.14206">
        <ele>139.529999</ele>
        <time>2020-12-05T15:17:08Z</time>
      </trkpt>
      <trkpt lat="49.42658" lon="1.14203">
        <ele>139.529999</ele>
        <time>2020-12-05T15:17:09Z</time>
      </trkpt>
      <trkpt lat="49.42657" lon="1.14188">
        <ele>139.529999</ele>
        <time>2020-12-05T15:17:12Z</time>
      </trkpt>
      <trkpt lat="49.42656" lon="1.14181">
        <ele>138.570007</ele>
        <time>2020-12-05T15:17:13Z</time>
      </trkpt>
      <trkpt lat="49.42655" lon="1.14174">
        <ele>138.570007</ele>
        <time>2020-12-05T15:17:14Z</time>
      </trkpt>
      <trkpt lat="49.42654" lon="1.14167">
        <ele>138.570007</ele>
        <time>2020-12-05T15:17:15Z</time>
      </trkpt>
      <trkpt lat="49.42652" lon="1.14159">
        <ele>138.570007</ele>
        <time>2020-12-05T15:17:16Z</time>
      </trkpt>
      <trkpt lat="49.42648" lon="1.14134">
        <ele>140.009995</ele>
        <time>2020-12-05T15:17:20Z</time>
      </trkpt>
      <trkpt lat="49.42637" lon="1.14067">
        <ele>141.449997</ele>
        <time>2020-12-05T15:17:31Z</time>
      </trkpt>
      <trkpt lat="49.4262" lon="1.14015">
        <ele>141.929993</ele>
        <time>2020-12-05T15:17:39Z</time>
      </trkpt>
      <trkpt lat="49.42617" lon="1.1401">
        <ele>142.410004</ele>
        <time>2020-12-05T15:17:40Z</time>
      </trkpt>
      <trkpt lat="49.42613" lon="1.14006">
        <ele>143.369995</ele>
        <time>2020-12-05T15:17:41Z</time>
      </trkpt>
      <trkpt lat="49.42609" lon="1.14002">
        <ele>143.850006</ele>
        <time>2020-12-05T15:17:42Z</time>
      </trkpt>
      <trkpt lat="49.42606" lon="1.13998">
        <ele>144.339996</ele>
        <time>2020-12-05T15:17:43Z</time>
      </trkpt>
      <trkpt lat="49.42603" lon="1.13993">
        <ele>144.339996</ele>
        <time>2020-12-05T15:17:44Z</time>
      </trkpt>
      <trkpt lat="49.42601" lon="1.13986">
        <ele>144.339996</ele>
        <time>2020-12-05T15:17:45Z</time>
      </trkpt>
      <trkpt lat="49.42599" lon="1.1398">
        <ele>144.339996</ele>
        <time>2020-12-05T15:17:46Z</time>
      </trkpt>
      <trkpt lat="49.42586" lon="1.13906">
        <ele>144.820007</ele>
        <time>2020-12-05T15:17:58Z</time>
      </trkpt>
      <trkpt lat="49.42573" lon="1.13869">
        <ele>144.820007</ele>
        <time>2020-12-05T15:18:05Z</time>
      </trkpt>
      <trkpt lat="49.42573" lon="1.13865">
        <ele>144.820007</ele>
        <time>2020-12-05T15:18:06Z</time>
      </trkpt>
      <trkpt lat="49.42575" lon="1.13863">
        <ele>144.820007</ele>
        <time>2020-12-05T15:18:07Z</time>
      </trkpt>
      <trkpt lat="49.4258" lon="1.13856">
        <ele>144.820007</ele>
        <time>2020-12-05T15:18:09Z</time>
      </trkpt>
      <trkpt lat="49.42583" lon="1.13851">
        <ele>143.369995</ele>
        <time>2020-12-05T15:18:10Z</time>
      </trkpt>
      <trkpt lat="49.42592" lon="1.13833">
        <ele>145.300003</ele>
        <time>2020-12-05T15:18:15Z</time>
      </trkpt>
      <trkpt lat="49.42598" lon="1.13827">
        <ele>145.779999</ele>
        <time>2020-12-05T15:18:17Z</time>
      </trkpt>
      <trkpt lat="49.42602" lon="1.13824">
        <ele>145.779999</ele>
        <time>2020-12-05T15:18:18Z</time>
      </trkpt>
      <trkpt lat="49.42609" lon="1.1382">
        <ele>146.259995</ele>
        <time>2020-12-05T15:18:20Z</time>
      </trkpt>
      <trkpt lat="49.42612" lon="1.13817">
        <ele>146.259995</ele>
        <time>2020-12-05T15:18:21Z</time>
      </trkpt>
      <trkpt lat="49.42619" lon="1.13811">
        <ele>146.259995</ele>
        <time>2020-12-05T15:18:23Z</time>
      </trkpt>
      <trkpt lat="49.42624" lon="1.13808">
        <ele>146.259995</ele>
        <time>2020-12-05T15:18:24Z</time>
      </trkpt>
      <trkpt lat="49.42628" lon="1.13806">
        <ele>146.259995</ele>
        <time>2020-12-05T15:18:25Z</time>
      </trkpt>
      <trkpt lat="49.42632" lon="1.13805">
        <ele>146.259995</ele>
        <time>2020-12-05T15:18:26Z</time>
      </trkpt>
      <trkpt lat="49.42636" lon="1.13802">
        <ele>146.740005</ele>
        <time>2020-12-05T15:18:27Z</time>
      </trkpt>
      <trkpt lat="49.4264" lon="1.13798">
        <ele>146.740005</ele>
        <time>2020-12-05T15:18:28Z</time>
      </trkpt>
      <trkpt lat="49.42643" lon="1.13795">
        <ele>146.740005</ele>
        <time>2020-12-05T15:18:29Z</time>
      </trkpt>
      <trkpt lat="49.42647" lon="1.13794">
        <ele>146.740005</ele>
        <time>2020-12-05T15:18:30Z</time>
      </trkpt>
      <trkpt lat="49.42649" lon="1.13799">
        <ele>147.220001</ele>
        <time>2020-12-05T15:18:31Z</time>
      </trkpt>
      <trkpt lat="49.42642" lon="1.13822">
        <ele>147.220001</ele>
        <time>2020-12-05T15:18:35Z</time>
      </trkpt>
      <trkpt lat="49.42619" lon="1.13838">
        <ele>147.220001</ele>
        <time>2020-12-05T15:18:40Z</time>
      </trkpt>
      <trkpt lat="49.42602" lon="1.13844">
        <ele>147.220001</ele>
        <time>2020-12-05T15:18:43Z</time>
      </trkpt>
      <trkpt lat="49.42598" lon="1.13848">
        <ele>147.220001</ele>
        <time>2020-12-05T15:18:44Z</time>
      </trkpt>
      <trkpt lat="49.42596" lon="1.13853">
        <ele>145.779999</ele>
        <time>2020-12-05T15:18:45Z</time>
      </trkpt>
      <trkpt lat="49.42596" lon="1.1386">
        <ele>145.779999</ele>
        <time>2020-12-05T15:18:46Z</time>
      </trkpt>
      <trkpt lat="49.42598" lon="1.13867">
        <ele>145.779999</ele>
        <time>2020-12-05T15:18:47Z</time>
      </trkpt>
      <trkpt lat="49.42601" lon="1.13872">
        <ele>145.779999</ele>
        <time>2020-12-05T15:18:48Z</time>
      </trkpt>
      <trkpt lat="49.42605" lon="1.13878">
        <ele>145.779999</ele>
        <time>2020-12-05T15:18:49Z</time>
      </trkpt>
      <trkpt lat="49.42609" lon="1.13883">
        <ele>145.779999</ele>
        <time>2020-12-05T15:18:50Z</time>
      </trkpt>
      <trkpt lat="49.42614" lon="1.13886">
        <ele>145.779999</ele>
        <time>2020-12-05T15:18:51Z</time>
      </trkpt>
      <trkpt lat="49.4262" lon="1.1389">
        <ele>145.779999</ele>
        <time>2020-12-05T15:18:52Z</time>
      </trkpt>
      <trkpt lat="49.4263" lon="1.13897">
        <ele>145.779999</ele>
        <time>2020-12-05T15:18:54Z</time>
      </trkpt>
      <trkpt lat="49.42635" lon="1.13902">
        <ele>145.779999</ele>
        <time>2020-12-05T15:18:55Z</time>
      </trkpt>
      <trkpt lat="49.42655" lon="1.13904">
        <ele>143.369995</ele>
        <time>2020-12-05T15:18:59Z</time>
      </trkpt>
      <trkpt lat="49.42658" lon="1.139">
        <ele>143.369995</ele>
        <time>2020-12-05T15:19:01Z</time>
      </trkpt>
      <trkpt lat="49.42681" lon="1.13872">
        <ele>142.889999</ele>
        <time>2020-12-05T15:19:11Z</time>
      </trkpt>
      <trkpt lat="49.42689" lon="1.13863">
        <ele>142.889999</ele>
        <time>2020-12-05T15:19:13Z</time>
      </trkpt>
      <trkpt lat="49.42708" lon="1.1385">
        <ele>142.889999</ele>
        <time>2020-12-05T15:19:18Z</time>
      </trkpt>
      <trkpt lat="49.42713" lon="1.13855">
        <ele>142.889999</ele>
        <time>2020-12-05T15:19:19Z</time>
      </trkpt>
      <trkpt lat="49.42716" lon="1.13858">
        <ele>142.889999</ele>
        <time>2020-12-05T15:19:20Z</time>
      </trkpt>
      <trkpt lat="49.4272" lon="1.13862">
        <ele>142.889999</ele>
        <time>2020-12-05T15:19:21Z</time>
      </trkpt>
      <trkpt lat="49.42723" lon="1.13868">
        <ele>142.889999</ele>
        <time>2020-12-05T15:19:22Z</time>
      </trkpt>
      <trkpt lat="49.42718" lon="1.139">
        <ele>143.850006</ele>
        <time>2020-12-05T15:19:27Z</time>
      </trkpt>
      <trkpt lat="49.42709" lon="1.13917">
        <ele>143.850006</ele>
        <time>2020-12-05T15:19:30Z</time>
      </trkpt>
      <trkpt lat="49.42696" lon="1.13935">
        <ele>141.929993</ele>
        <time>2020-12-05T15:19:33Z</time>
      </trkpt>
      <trkpt lat="49.42666" lon="1.13953">
        <ele>141.449997</ele>
        <time>2020-12-05T15:19:40Z</time>
      </trkpt>
      <trkpt lat="49.42667" lon="1.13959">
        <ele>141.449997</ele>
        <time>2020-12-05T15:19:41Z</time>
      </trkpt>
      <trkpt lat="49.4267" lon="1.13963">
        <ele>141.449997</ele>
        <time>2020-12-05T15:19:42Z</time>
      </trkpt>
      <trkpt lat="49.42675" lon="1.13966">
        <ele>141.449997</ele>
        <time>2020-12-05T15:19:43Z</time>
      </trkpt>
      <trkpt lat="49.4268" lon="1.13968">
        <ele>140.490005</ele>
        <time>2020-12-05T15:19:44Z</time>
      </trkpt>
      <trkpt lat="49.42684" lon="1.13971">
        <ele>140.490005</ele>
        <time>2020-12-05T15:19:45Z</time>
      </trkpt>
      <trkpt lat="49.42688" lon="1.13976">
        <ele>140.490005</ele>
        <time>2020-12-05T15:19:46Z</time>
      </trkpt>
      <trkpt lat="49.42692" lon="1.13982">
        <ele>140.009995</ele>
        <time>2020-12-05T15:19:47Z</time>
      </trkpt>
      <trkpt lat="49.42694" lon="1.13989">
        <ele>140.009995</ele>
        <time>2020-12-05T15:19:48Z</time>
      </trkpt>
      <trkpt lat="49.42696" lon="1.13996">
        <ele>140.009995</ele>
        <time>2020-12-05T15:19:49Z</time>
      </trkpt>
      <trkpt lat="49.42697" lon="1.14004">
        <ele>139.529999</ele>
        <time>2020-12-05T15:19:50Z</time>
      </trkpt>
      <trkpt lat="49.42697" lon="1.14012">
        <ele>139.529999</ele>
        <time>2020-12-05T15:19:51Z</time>
      </trkpt>
      <trkpt lat="49.42697" lon="1.14021">
        <ele>139.529999</ele>
        <time>2020-12-05T15:19:52Z</time>
      </trkpt>
      <trkpt lat="49.42695" lon="1.14038">
        <ele>139.529999</ele>
        <time>2020-12-05T15:19:54Z</time>
      </trkpt>
      <trkpt lat="49.42694" lon="1.14046">
        <ele>139.529999</ele>
        <time>2020-12-05T15:19:55Z</time>
      </trkpt>
      <trkpt lat="49.42694" lon="1.14055">
        <ele>139.050003</ele>
        <time>2020-12-05T15:19:56Z</time>
      </trkpt>
      <trkpt lat="49.42695" lon="1.14063">
        <ele>139.050003</ele>
        <time>2020-12-05T15:19:57Z</time>
      </trkpt>
      <trkpt lat="49.42696" lon="1.1407">
        <ele>138.089996</ele>
        <time>2020-12-05T15:19:58Z</time>
      </trkpt>
      <trkpt lat="49.42698" lon="1.14077">
        <ele>138.570007</ele>
        <time>2020-12-05T15:19:59Z</time>
      </trkpt>
      <trkpt lat="49.42705" lon="1.14086">
        <ele>137.610001</ele>
        <time>2020-12-05T15:20:01Z</time>
      </trkpt>
      <trkpt lat="49.42707" lon="1.14091">
        <ele>137.610001</ele>
        <time>2020-12-05T15:20:02Z</time>
      </trkpt>
      <trkpt lat="49.42709" lon="1.14097">
        <ele>137.610001</ele>
        <time>2020-12-05T15:20:03Z</time>
      </trkpt>
      <trkpt lat="49.4271" lon="1.14103">
        <ele>137.610001</ele>
        <time>2020-12-05T15:20:04Z</time>
      </trkpt>
      <trkpt lat="49.42711" lon="1.1411">
        <ele>137.610001</ele>
        <time>2020-12-05T15:20:05Z</time>
      </trkpt>
      <trkpt lat="49.4272" lon="1.14145">
        <ele>136.639999</ele>
        <time>2020-12-05T15:20:09Z</time>
      </trkpt>
      <trkpt lat="49.42729" lon="1.14169">
        <ele>136.639999</ele>
        <time>2020-12-05T15:20:12Z</time>
      </trkpt>
      <trkpt lat="49.42734" lon="1.14175">
        <ele>136.639999</ele>
        <time>2020-12-05T15:20:13Z</time>
      </trkpt>
      <trkpt lat="49.42738" lon="1.1418">
        <ele>136.639999</ele>
        <time>2020-12-05T15:20:14Z</time>
      </trkpt>
      <trkpt lat="49.42744" lon="1.14183">
        <ele>136.160004</ele>
        <time>2020-12-05T15:20:15Z</time>
      </trkpt>
      <trkpt lat="49.42749" lon="1.14185">
        <ele>136.160004</ele>
        <time>2020-12-05T15:20:16Z</time>
      </trkpt>
      <trkpt lat="49.42756" lon="1.14188">
        <ele>135.679993</ele>
        <time>2020-12-05T15:20:17Z</time>
      </trkpt>
      <trkpt lat="49.42762" lon="1.14189">
        <ele>135.679993</ele>
        <time>2020-12-05T15:20:18Z</time>
      </trkpt>
      <trkpt lat="49.42769" lon="1.14189">
        <ele>135.679993</ele>
        <time>2020-12-05T15:20:19Z</time>
      </trkpt>
      <trkpt lat="49.42774" lon="1.14186">
        <ele>134.720001</ele>
        <time>2020-12-05T15:20:20Z</time>
      </trkpt>
      <trkpt lat="49.42779" lon="1.14183">
        <ele>134.240005</ele>
        <time>2020-12-05T15:20:21Z</time>
      </trkpt>
      <trkpt lat="49.42783" lon="1.14178">
        <ele>134.240005</ele>
        <time>2020-12-05T15:20:22Z</time>
      </trkpt>
      <trkpt lat="49.42788" lon="1.14174">
        <ele>134.240005</ele>
        <time>2020-12-05T15:20:23Z</time>
      </trkpt>
      <trkpt lat="49.42793" lon="1.14169">
        <ele>133.759995</ele>
        <time>2020-12-05T15:20:24Z</time>
      </trkpt>
      <trkpt lat="49.42798" lon="1.14164">
        <ele>133.759995</ele>
        <time>2020-12-05T15:20:25Z</time>
      </trkpt>
      <trkpt lat="49.42803" lon="1.14159">
        <ele>133.279999</ele>
        <time>2020-12-05T15:20:26Z</time>
      </trkpt>
      <trkpt lat="49.42809" lon="1.14155">
        <ele>132.320007</ele>
        <time>2020-12-05T15:20:27Z</time>
      </trkpt>
      <trkpt lat="49.42816" lon="1.14152">
        <ele>132.320007</ele>
        <time>2020-12-05T15:20:28Z</time>
      </trkpt>
      <trkpt lat="49.42821" lon="1.14146">
        <ele>131.839996</ele>
        <time>2020-12-05T15:20:29Z</time>
      </trkpt>
      <trkpt lat="49.42826" lon="1.14138">
        <ele>131.839996</ele>
        <time>2020-12-05T15:20:30Z</time>
      </trkpt>
      <trkpt lat="49.42831" lon="1.14131">
        <ele>131.839996</ele>
        <time>2020-12-05T15:20:31Z</time>
      </trkpt>
      <trkpt lat="49.42835" lon="1.14123">
        <ele>131.839996</ele>
        <time>2020-12-05T15:20:32Z</time>
      </trkpt>
      <trkpt lat="49.42839" lon="1.14116">
        <ele>131.839996</ele>
        <time>2020-12-05T15:20:33Z</time>
      </trkpt>
      <trkpt lat="49.42843" lon="1.14113">
        <ele>131.839996</ele>
        <time>2020-12-05T15:20:34Z</time>
      </trkpt>
      <trkpt lat="49.42847" lon="1.14113">
        <ele>131.839996</ele>
        <time>2020-12-05T15:20:35Z</time>
      </trkpt>
      <trkpt lat="49.42851" lon="1.14115">
        <ele>131.839996</ele>
        <time>2020-12-05T15:20:36Z</time>
      </trkpt>
      <trkpt lat="49.42854" lon="1.14117">
        <ele>131.839996</ele>
        <time>2020-12-05T15:20:37Z</time>
      </trkpt>
      <trkpt lat="49.42856" lon="1.1412">
        <ele>131.839996</ele>
        <time>2020-12-05T15:20:38Z</time>
      </trkpt>
      <trkpt lat="49.4286" lon="1.14123">
        <ele>133.759995</ele>
        <time>2020-12-05T15:20:40Z</time>
      </trkpt>
      <trkpt lat="49.42862" lon="1.14123">
        <ele>133.759995</ele>
        <time>2020-12-05T15:20:41Z</time>
      </trkpt>
      <trkpt lat="49.42865" lon="1.14123">
        <ele>134.720001</ele>
        <time>2020-12-05T15:20:42Z</time>
      </trkpt>
      <trkpt lat="49.4289" lon="1.14101">
        <ele>138.089996</ele>
        <time>2020-12-05T15:20:51Z</time>
      </trkpt>
      <trkpt lat="49.42894" lon="1.14094">
        <ele>139.050003</ele>
        <time>2020-12-05T15:20:53Z</time>
      </trkpt>
      <trkpt lat="49.42898" lon="1.1409">
        <ele>139.050003</ele>
        <time>2020-12-05T15:20:55Z</time>
      </trkpt>
      <trkpt lat="49.42912" lon="1.14078">
        <ele>139.050003</ele>
        <time>2020-12-05T15:21:01Z</time>
      </trkpt>
      <trkpt lat="49.42936" lon="1.14045">
        <ele>139.529999</ele>
        <time>2020-12-05T15:21:12Z</time>
      </trkpt>
      <trkpt lat="49.42942" lon="1.1404">
        <ele>139.529999</ele>
        <time>2020-12-05T15:21:15Z</time>
      </trkpt>
      <trkpt lat="49.42961" lon="1.14057">
        <ele>139.529999</ele>
        <time>2020-12-05T15:21:23Z</time>
      </trkpt>
      <trkpt lat="49.42971" lon="1.14069">
        <ele>139.529999</ele>
        <time>2020-12-05T15:21:27Z</time>
      </trkpt>
      <trkpt lat="49.4297" lon="1.14093">
        <ele>138.089996</ele>
        <time>2020-12-05T15:21:32Z</time>
      </trkpt>
      <trkpt lat="49.42969" lon="1.14096">
        <ele>138.089996</ele>
        <time>2020-12-05T15:21:33Z</time>
      </trkpt>
      <trkpt lat="49.42968" lon="1.14098">
        <ele>138.089996</ele>
        <time>2020-12-05T15:21:34Z</time>
      </trkpt>
      <trkpt lat="49.42971" lon="1.14103">
        <ele>137.130005</ele>
        <time>2020-12-05T15:21:36Z</time>
      </trkpt>
      <trkpt lat="49.42975" lon="1.14106">
        <ele>137.130005</ele>
        <time>2020-12-05T15:21:37Z</time>
      </trkpt>
      <trkpt lat="49.42978" lon="1.14107">
        <ele>137.130005</ele>
        <time>2020-12-05T15:21:38Z</time>
      </trkpt>
      <trkpt lat="49.42995" lon="1.14112">
        <ele>136.639999</ele>
        <time>2020-12-05T15:21:42Z</time>
      </trkpt>
      <trkpt lat="49.42999" lon="1.14115">
        <ele>136.639999</ele>
        <time>2020-12-05T15:21:43Z</time>
      </trkpt>
      <trkpt lat="49.43005" lon="1.14118">
        <ele>136.160004</ele>
        <time>2020-12-05T15:21:44Z</time>
      </trkpt>
      <trkpt lat="49.43008" lon="1.1412">
        <ele>136.160004</ele>
        <time>2020-12-05T15:21:45Z</time>
      </trkpt>
      <trkpt lat="49.43013" lon="1.14125">
        <ele>135.199997</ele>
        <time>2020-12-05T15:21:46Z</time>
      </trkpt>
      <trkpt lat="49.43018" lon="1.14131">
        <ele>135.199997</ele>
        <time>2020-12-05T15:21:47Z</time>
      </trkpt>
      <trkpt lat="49.43024" lon="1.14136">
        <ele>135.199997</ele>
        <time>2020-12-05T15:21:48Z</time>
      </trkpt>
      <trkpt lat="49.43035" lon="1.14148">
        <ele>132.320007</ele>
        <time>2020-12-05T15:21:50Z</time>
      </trkpt>
      <trkpt lat="49.4304" lon="1.14156">
        <ele>131.839996</ele>
        <time>2020-12-05T15:21:51Z</time>
      </trkpt>
      <trkpt lat="49.43048" lon="1.14171">
        <ele>130.399994</ele>
        <time>2020-12-05T15:21:53Z</time>
      </trkpt>
      <trkpt lat="49.43053" lon="1.14185">
        <ele>127.989998</ele>
        <time>2020-12-05T15:21:55Z</time>
      </trkpt>
      <trkpt lat="49.43056" lon="1.14212">
        <ele>123.669998</ele>
        <time>2020-12-05T15:22:00Z</time>
      </trkpt>
      <trkpt lat="49.43064" lon="1.14214">
        <ele>123.190002</ele>
        <time>2020-12-05T15:22:02Z</time>
      </trkpt>
      <trkpt lat="49.43078" lon="1.14215">
        <ele>120.779999</ele>
        <time>2020-12-05T15:22:06Z</time>
      </trkpt>
      <trkpt lat="49.43081" lon="1.14216">
        <ele>120.779999</ele>
        <time>2020-12-05T15:22:07Z</time>
      </trkpt>
      <trkpt lat="49.43104" lon="1.14232">
        <ele>115.5</ele>
        <time>2020-12-05T15:22:12Z</time>
      </trkpt>
      <trkpt lat="49.43107" lon="1.14248">
        <ele>111.650002</ele>
        <time>2020-12-05T15:22:15Z</time>
      </trkpt>
      <trkpt lat="49.43102" lon="1.14269">
        <ele>110.209999</ele>
        <time>2020-12-05T15:22:18Z</time>
      </trkpt>
      <trkpt lat="49.43101" lon="1.14275">
        <ele>109.25</ele>
        <time>2020-12-05T15:22:19Z</time>
      </trkpt>
      <trkpt lat="49.43105" lon="1.14278">
        <ele>107.809998</ele>
        <time>2020-12-05T15:22:21Z</time>
      </trkpt>
      <trkpt lat="49.43111" lon="1.14277">
        <ele>106.839996</ele>
        <time>2020-12-05T15:22:22Z</time>
      </trkpt>
      <trkpt lat="49.43119" lon="1.14276">
        <ele>106.360001</ele>
        <time>2020-12-05T15:22:24Z</time>
      </trkpt>
      <trkpt lat="49.43125" lon="1.14277">
        <ele>104.919998</ele>
        <time>2020-12-05T15:22:25Z</time>
      </trkpt>
      <trkpt lat="49.43129" lon="1.14279">
        <ele>103</ele>
        <time>2020-12-05T15:22:26Z</time>
      </trkpt>
      <trkpt lat="49.43131" lon="1.14282">
        <ele>102.040001</ele>
        <time>2020-12-05T15:22:27Z</time>
      </trkpt>
      <trkpt lat="49.43136" lon="1.14288">
        <ele>99.629997</ele>
        <time>2020-12-05T15:22:31Z</time>
      </trkpt>
      <trkpt lat="49.43137" lon="1.14287">
        <ele>99.629997</ele>
        <time>2020-12-05T15:22:32Z</time>
      </trkpt>
      <trkpt lat="49.43147" lon="1.14284">
        <ele>98.669998</ele>
        <time>2020-12-05T15:22:37Z</time>
      </trkpt>
      <trkpt lat="49.43149" lon="1.14282">
        <ele>98.190002</ele>
        <time>2020-12-05T15:22:38Z</time>
      </trkpt>
      <trkpt lat="49.43151" lon="1.1428">
        <ele>98.669998</ele>
        <time>2020-12-05T15:22:39Z</time>
      </trkpt>
      <trkpt lat="49.43153" lon="1.14278">
        <ele>98.669998</ele>
        <time>2020-12-05T15:22:40Z</time>
      </trkpt>
      <trkpt lat="49.43156" lon="1.14276">
        <ele>98.190002</ele>
        <time>2020-12-05T15:22:41Z</time>
      </trkpt>
      <trkpt lat="49.43158" lon="1.14275">
        <ele>98.190002</ele>
        <time>2020-12-05T15:22:42Z</time>
      </trkpt>
      <trkpt lat="49.43161" lon="1.14273">
        <ele>98.190002</ele>
        <time>2020-12-05T15:22:43Z</time>
      </trkpt>
      <trkpt lat="49.43175" lon="1.14267">
        <ele>99.629997</ele>
        <time>2020-12-05T15:22:50Z</time>
      </trkpt>
      <trkpt lat="49.43191" lon="1.14253">
        <ele>101.080002</ele>
        <time>2020-12-05T15:22:58Z</time>
      </trkpt>
      <trkpt lat="49.43192" lon="1.1425">
        <ele>101.559998</ele>
        <time>2020-12-05T15:22:59Z</time>
      </trkpt>
      <trkpt lat="49.43193" lon="1.14246">
        <ele>102.040001</ele>
        <time>2020-12-05T15:23:00Z</time>
      </trkpt>
      <trkpt lat="49.43196" lon="1.14227">
        <ele>103.959999</ele>
        <time>2020-12-05T15:23:06Z</time>
      </trkpt>
      <trkpt lat="49.43191" lon="1.14215">
        <ele>107.32</ele>
        <time>2020-12-05T15:23:12Z</time>
      </trkpt>
      <trkpt lat="49.43189" lon="1.14214">
        <ele>107.809998</ele>
        <time>2020-12-05T15:23:14Z</time>
      </trkpt>
      <trkpt lat="49.43171" lon="1.14213">
        <ele>110.690002</ele>
        <time>2020-12-05T15:23:28Z</time>
      </trkpt>
      <trkpt lat="49.43161" lon="1.1421">
        <ele>112.129997</ele>
        <time>2020-12-05T15:23:36Z</time>
      </trkpt>
      <trkpt lat="49.43159" lon="1.14208">
        <ele>113.57</ele>
        <time>2020-12-05T15:23:38Z</time>
      </trkpt>
      <trkpt lat="49.43154" lon="1.14203">
        <ele>115.010002</ele>
        <time>2020-12-05T15:23:42Z</time>
      </trkpt>
      <trkpt lat="49.43154" lon="1.14199">
        <ele>115.980003</ele>
        <time>2020-12-05T15:23:44Z</time>
      </trkpt>
      <trkpt lat="49.43151" lon="1.14193">
        <ele>117.900002</ele>
        <time>2020-12-05T15:23:48Z</time>
      </trkpt>
      <trkpt lat="49.43155" lon="1.14174">
        <ele>120.779999</ele>
        <time>2020-12-05T15:23:59Z</time>
      </trkpt>
      <trkpt lat="49.43154" lon="1.14172">
        <ele>120.779999</ele>
        <time>2020-12-05T15:24:00Z</time>
      </trkpt>
      <trkpt lat="49.43153" lon="1.1417">
        <ele>120.779999</ele>
        <time>2020-12-05T15:24:01Z</time>
      </trkpt>
      <trkpt lat="49.43149" lon="1.14168">
        <ele>121.739998</ele>
        <time>2020-12-05T15:24:06Z</time>
      </trkpt>
      <trkpt lat="49.43143" lon="1.1417">
        <ele>121.739998</ele>
        <time>2020-12-05T15:24:13Z</time>
      </trkpt>
      <trkpt lat="49.43122" lon="1.14167">
        <ele>124.629997</ele>
        <time>2020-12-05T15:24:28Z</time>
      </trkpt>
      <trkpt lat="49.4312" lon="1.14167">
        <ele>124.629997</ele>
        <time>2020-12-05T15:24:29Z</time>
      </trkpt>
      <trkpt lat="49.43117" lon="1.14148">
        <ele>127.989998</ele>
        <time>2020-12-05T15:24:36Z</time>
      </trkpt>
      <trkpt lat="49.43105" lon="1.14135">
        <ele>129.919998</ele>
        <time>2020-12-05T15:24:44Z</time>
      </trkpt>
      <trkpt lat="49.43103" lon="1.1413">
        <ele>131.360001</ele>
        <time>2020-12-05T15:24:46Z</time>
      </trkpt>
      <trkpt lat="49.43099" lon="1.14128">
        <ele>131.839996</ele>
        <time>2020-12-05T15:24:49Z</time>
      </trkpt>
      <trkpt lat="49.43093" lon="1.14129">
        <ele>132.800003</ele>
        <time>2020-12-05T15:24:53Z</time>
      </trkpt>
      <trkpt lat="49.4307" lon="1.14142">
        <ele>132.320007</ele>
        <time>2020-12-05T15:25:02Z</time>
      </trkpt>
      <trkpt lat="49.43065" lon="1.14139">
        <ele>132.320007</ele>
        <time>2020-12-05T15:25:04Z</time>
      </trkpt>
      <trkpt lat="49.43063" lon="1.14135">
        <ele>132.800003</ele>
        <time>2020-12-05T15:25:05Z</time>
      </trkpt>
      <trkpt lat="49.43062" lon="1.14133">
        <ele>132.800003</ele>
        <time>2020-12-05T15:25:06Z</time>
      </trkpt>
      <trkpt lat="49.43061" lon="1.1413">
        <ele>133.279999</ele>
        <time>2020-12-05T15:25:07Z</time>
      </trkpt>
      <trkpt lat="49.4306" lon="1.14127">
        <ele>133.279999</ele>
        <time>2020-12-05T15:25:08Z</time>
      </trkpt>
      <trkpt lat="49.4306" lon="1.14124">
        <ele>133.759995</ele>
        <time>2020-12-05T15:25:09Z</time>
      </trkpt>
      <trkpt lat="49.43059" lon="1.14121">
        <ele>133.759995</ele>
        <time>2020-12-05T15:25:10Z</time>
      </trkpt>
      <trkpt lat="49.43059" lon="1.14098">
        <ele>135.679993</ele>
        <time>2020-12-05T15:25:17Z</time>
      </trkpt>
      <trkpt lat="49.43058" lon="1.14095">
        <ele>136.160004</ele>
        <time>2020-12-05T15:25:18Z</time>
      </trkpt>
      <trkpt lat="49.43057" lon="1.14092">
        <ele>136.160004</ele>
        <time>2020-12-05T15:25:19Z</time>
      </trkpt>
      <trkpt lat="49.43055" lon="1.1409">
        <ele>136.639999</ele>
        <time>2020-12-05T15:25:20Z</time>
      </trkpt>
      <trkpt lat="49.43053" lon="1.14088">
        <ele>136.639999</ele>
        <time>2020-12-05T15:25:21Z</time>
      </trkpt>
      <trkpt lat="49.43052" lon="1.14086">
        <ele>136.639999</ele>
        <time>2020-12-05T15:25:22Z</time>
      </trkpt>
      <trkpt lat="49.4305" lon="1.14084">
        <ele>136.639999</ele>
        <time>2020-12-05T15:25:23Z</time>
      </trkpt>
      <trkpt lat="49.43048" lon="1.14082">
        <ele>137.130005</ele>
        <time>2020-12-05T15:25:24Z</time>
      </trkpt>
      <trkpt lat="49.43045" lon="1.14073">
        <ele>137.610001</ele>
        <time>2020-12-05T15:25:28Z</time>
      </trkpt>
      <trkpt lat="49.43043" lon="1.14038">
        <ele>139.050003</ele>
        <time>2020-12-05T15:25:38Z</time>
      </trkpt>
      <trkpt lat="49.43039" lon="1.1403">
        <ele>139.529999</ele>
        <time>2020-12-05T15:25:40Z</time>
      </trkpt>
      <trkpt lat="49.43022" lon="1.1399">
        <ele>140.490005</ele>
        <time>2020-12-05T15:25:51Z</time>
      </trkpt>
      <trkpt lat="49.43036" lon="1.1398">
        <ele>140.490005</ele>
        <time>2020-12-05T15:25:55Z</time>
      </trkpt>
      <trkpt lat="49.43053" lon="1.13971">
        <ele>140.970001</ele>
        <time>2020-12-05T15:25:58Z</time>
      </trkpt>
      <trkpt lat="49.43077" lon="1.13981">
        <ele>139.050003</ele>
        <time>2020-12-05T15:26:03Z</time>
      </trkpt>
      <trkpt lat="49.43085" lon="1.14002">
        <ele>138.570007</ele>
        <time>2020-12-05T15:26:06Z</time>
      </trkpt>
      <trkpt lat="49.43085" lon="1.14013">
        <ele>138.570007</ele>
        <time>2020-12-05T15:26:07Z</time>
      </trkpt>
      <trkpt lat="49.43085" lon="1.14019">
        <ele>138.570007</ele>
        <time>2020-12-05T15:26:08Z</time>
      </trkpt>
      <trkpt lat="49.43084" lon="1.14026">
        <ele>138.570007</ele>
        <time>2020-12-05T15:26:09Z</time>
      </trkpt>
      <trkpt lat="49.43084" lon="1.14033">
        <ele>138.570007</ele>
        <time>2020-12-05T15:26:10Z</time>
      </trkpt>
      <trkpt lat="49.43085" lon="1.14039">
        <ele>138.570007</ele>
        <time>2020-12-05T15:26:11Z</time>
      </trkpt>
      <trkpt lat="49.43087" lon="1.14047">
        <ele>137.130005</ele>
        <time>2020-12-05T15:26:12Z</time>
      </trkpt>
      <trkpt lat="49.43089" lon="1.14055">
        <ele>137.130005</ele>
        <time>2020-12-05T15:26:13Z</time>
      </trkpt>
      <trkpt lat="49.43092" lon="1.14063">
        <ele>137.130005</ele>
        <time>2020-12-05T15:26:14Z</time>
      </trkpt>
      <trkpt lat="49.43095" lon="1.1407">
        <ele>136.160004</ele>
        <time>2020-12-05T15:26:15Z</time>
      </trkpt>
      <trkpt lat="49.43099" lon="1.14076">
        <ele>135.679993</ele>
        <time>2020-12-05T15:26:16Z</time>
      </trkpt>
      <trkpt lat="49.43117" lon="1.14092">
        <ele>133.279999</ele>
        <time>2020-12-05T15:26:19Z</time>
      </trkpt>
      <trkpt lat="49.43156" lon="1.14093">
        <ele>127.510002</ele>
        <time>2020-12-05T15:26:25Z</time>
      </trkpt>
      <trkpt lat="49.43162" lon="1.14093">
        <ele>126.07</ele>
        <time>2020-12-05T15:26:26Z</time>
      </trkpt>
      <trkpt lat="49.43165" lon="1.14092">
        <ele>125.110001</ele>
        <time>2020-12-05T15:26:27Z</time>
      </trkpt>
      <trkpt lat="49.4317" lon="1.14089">
        <ele>123.669998</ele>
        <time>2020-12-05T15:26:28Z</time>
      </trkpt>
      <trkpt lat="49.43172" lon="1.14084">
        <ele>123.190002</ele>
        <time>2020-12-05T15:26:29Z</time>
      </trkpt>
      <trkpt lat="49.43174" lon="1.14077">
        <ele>123.190002</ele>
        <time>2020-12-05T15:26:30Z</time>
      </trkpt>
      <trkpt lat="49.43174" lon="1.14072">
        <ele>122.709999</ele>
        <time>2020-12-05T15:26:31Z</time>
      </trkpt>
      <trkpt lat="49.43174" lon="1.14064">
        <ele>122.709999</ele>
        <time>2020-12-05T15:26:32Z</time>
      </trkpt>
      <trkpt lat="49.43173" lon="1.14057">
        <ele>122.709999</ele>
        <time>2020-12-05T15:26:33Z</time>
      </trkpt>
      <trkpt lat="49.43172" lon="1.1405">
        <ele>124.629997</ele>
        <time>2020-12-05T15:26:34Z</time>
      </trkpt>
      <trkpt lat="49.43171" lon="1.14042">
        <ele>124.629997</ele>
        <time>2020-12-05T15:26:35Z</time>
      </trkpt>
      <trkpt lat="49.43168" lon="1.14019">
        <ele>126.07</ele>
        <time>2020-12-05T15:26:38Z</time>
      </trkpt>
      <trkpt lat="49.43167" lon="1.14003">
        <ele>126.07</ele>
        <time>2020-12-05T15:26:40Z</time>
      </trkpt>
      <trkpt lat="49.43166" lon="1.13995">
        <ele>126.07</ele>
        <time>2020-12-05T15:26:41Z</time>
      </trkpt>
      <trkpt lat="49.43156" lon="1.13964">
        <ele>128.949997</ele>
        <time>2020-12-05T15:26:47Z</time>
      </trkpt>
      <trkpt lat="49.43154" lon="1.13961">
        <ele>129.919998</ele>
        <time>2020-12-05T15:26:48Z</time>
      </trkpt>
      <trkpt lat="49.43149" lon="1.1396">
        <ele>130.399994</ele>
        <time>2020-12-05T15:26:50Z</time>
      </trkpt>
      <trkpt lat="49.43139" lon="1.13956">
        <ele>133.759995</ele>
        <time>2020-12-05T15:26:56Z</time>
      </trkpt>
      <trkpt lat="49.43135" lon="1.13949">
        <ele>133.759995</ele>
        <time>2020-12-05T15:27:10Z</time>
      </trkpt>
      <trkpt lat="49.43135" lon="1.13948">
        <ele>133.759995</ele>
        <time>2020-12-05T15:27:11Z</time>
      </trkpt>
      <trkpt lat="49.43144" lon="1.13911">
        <ele>131.839996</ele>
        <time>2020-12-05T15:27:21Z</time>
      </trkpt>
      <trkpt lat="49.43148" lon="1.13898">
        <ele>130.399994</ele>
        <time>2020-12-05T15:27:23Z</time>
      </trkpt>
      <trkpt lat="49.4315" lon="1.13889">
        <ele>128.470001</ele>
        <time>2020-12-05T15:27:24Z</time>
      </trkpt>
      <trkpt lat="49.4315" lon="1.13883">
        <ele>128.470001</ele>
        <time>2020-12-05T15:27:25Z</time>
      </trkpt>
      <trkpt lat="49.43151" lon="1.13859">
        <ele>125.589996</ele>
        <time>2020-12-05T15:27:29Z</time>
      </trkpt>
      <trkpt lat="49.43154" lon="1.13848">
        <ele>123.669998</ele>
        <time>2020-12-05T15:27:31Z</time>
      </trkpt>
      <trkpt lat="49.4315" lon="1.13827">
        <ele>123.669998</ele>
        <time>2020-12-05T15:27:35Z</time>
      </trkpt>
      <trkpt lat="49.43142" lon="1.1379">
        <ele>128.470001</ele>
        <time>2020-12-05T15:27:43Z</time>
      </trkpt>
      <trkpt lat="49.43138" lon="1.13776">
        <ele>129.919998</ele>
        <time>2020-12-05T15:27:47Z</time>
      </trkpt>
      <trkpt lat="49.43131" lon="1.13756">
        <ele>131.360001</ele>
        <time>2020-12-05T15:27:52Z</time>
      </trkpt>
      <trkpt lat="49.43124" lon="1.13735">
        <ele>133.279999</ele>
        <time>2020-12-05T15:27:58Z</time>
      </trkpt>
      <trkpt lat="49.43123" lon="1.13728">
        <ele>133.279999</ele>
        <time>2020-12-05T15:28:00Z</time>
      </trkpt>
      <trkpt lat="49.43118" lon="1.13713">
        <ele>133.279999</ele>
        <time>2020-12-05T15:28:05Z</time>
      </trkpt>
      <trkpt lat="49.4311" lon="1.1368">
        <ele>136.160004</ele>
        <time>2020-12-05T15:28:17Z</time>
      </trkpt>
      <trkpt lat="49.43109" lon="1.13679">
        <ele>136.639999</ele>
        <time>2020-12-05T15:28:18Z</time>
      </trkpt>
      <trkpt lat="49.43103" lon="1.13683">
        <ele>138.089996</ele>
        <time>2020-12-05T15:28:25Z</time>
      </trkpt>
      <trkpt lat="49.43087" lon="1.13694">
        <ele>140.490005</ele>
        <time>2020-12-05T15:28:36Z</time>
      </trkpt>
      <trkpt lat="49.43063" lon="1.13694">
        <ele>141.449997</ele>
        <time>2020-12-05T15:28:49Z</time>
      </trkpt>
      <trkpt lat="49.43027" lon="1.13693">
        <ele>142.889999</ele>
        <time>2020-12-05T15:29:03Z</time>
      </trkpt>
      <trkpt lat="49.43012" lon="1.13692">
        <ele>143.369995</ele>
        <time>2020-12-05T15:29:07Z</time>
      </trkpt>
      <trkpt lat="49.42984" lon="1.13725">
        <ele>143.850006</ele>
        <time>2020-12-05T15:29:18Z</time>
      </trkpt>
      <trkpt lat="49.42964" lon="1.13755">
        <ele>143.850006</ele>
        <time>2020-12-05T15:29:26Z</time>
      </trkpt>
      <trkpt lat="49.42967" lon="1.13763">
        <ele>143.850006</ele>
        <time>2020-12-05T15:29:29Z</time>
      </trkpt>
      <trkpt lat="49.42975" lon="1.13769">
        <ele>143.850006</ele>
        <time>2020-12-05T15:29:31Z</time>
      </trkpt>
      <trkpt lat="49.42998" lon="1.13767">
        <ele>144.339996</ele>
        <time>2020-12-05T15:29:37Z</time>
      </trkpt>
      <trkpt lat="49.43013" lon="1.13754">
        <ele>142.889999</ele>
        <time>2020-12-05T15:29:41Z</time>
      </trkpt>
      <trkpt lat="49.43039" lon="1.13754">
        <ele>142.410004</ele>
        <time>2020-12-05T15:29:47Z</time>
      </trkpt>
      <trkpt lat="49.4305" lon="1.13783">
        <ele>140.970001</ele>
        <time>2020-12-05T15:29:54Z</time>
      </trkpt>
      <trkpt lat="49.43047" lon="1.13788">
        <ele>140.970001</ele>
        <time>2020-12-05T15:29:55Z</time>
      </trkpt>
      <trkpt lat="49.43033" lon="1.13802">
        <ele>142.410004</ele>
        <time>2020-12-05T15:29:59Z</time>
      </trkpt>
      <trkpt lat="49.43044" lon="1.13817">
        <ele>142.410004</ele>
        <time>2020-12-05T15:30:04Z</time>
      </trkpt>
      <trkpt lat="49.43051" lon="1.13825">
        <ele>141.449997</ele>
        <time>2020-12-05T15:30:06Z</time>
      </trkpt>
      <trkpt lat="49.43064" lon="1.13852">
        <ele>140.009995</ele>
        <time>2020-12-05T15:30:11Z</time>
      </trkpt>
      <trkpt lat="49.43061" lon="1.13856">
        <ele>140.009995</ele>
        <time>2020-12-05T15:30:12Z</time>
      </trkpt>
      <trkpt lat="49.43046" lon="1.13874">
        <ele>140.970001</ele>
        <time>2020-12-05T15:30:18Z</time>
      </trkpt>
      <trkpt lat="49.43033" lon="1.13879">
        <ele>141.929993</ele>
        <time>2020-12-05T15:30:23Z</time>
      </trkpt>
      <trkpt lat="49.43019" lon="1.13901">
        <ele>141.929993</ele>
        <time>2020-12-05T15:30:33Z</time>
      </trkpt>
      <trkpt lat="49.43018" lon="1.13904">
        <ele>141.449997</ele>
        <time>2020-12-05T15:30:45Z</time>
      </trkpt>
      <trkpt lat="49.43016" lon="1.13908">
        <ele>141.449997</ele>
        <time>2020-12-05T15:31:02Z</time>
      </trkpt>
      <trkpt lat="49.43012" lon="1.13911">
        <ele>140.970001</ele>
        <time>2020-12-05T15:31:25Z</time>
      </trkpt>
      <trkpt lat="49.43006" lon="1.13914">
        <ele>140.970001</ele>
        <time>2020-12-05T15:31:53Z</time>
      </trkpt>
      <trkpt lat="49.43006" lon="1.13912">
        <ele>140.970001</ele>
        <time>2020-12-05T15:32:16Z</time>
      </trkpt>
      <trkpt lat="49.43008" lon="1.13915">
        <ele>140.970001</ele>
        <time>2020-12-05T15:32:42Z</time>
      </trkpt>
      <trkpt lat="49.43011" lon="1.13913">
        <ele>140.970001</ele>
        <time>2020-12-05T15:33:11Z</time>
      </trkpt>
      <trkpt lat="49.43011" lon="1.13915">
        <ele>140.970001</ele>
        <time>2020-12-05T15:33:37Z</time>
      </trkpt>
      <trkpt lat="49.4301" lon="1.13917">
        <ele>140.970001</ele>
        <time>2020-12-05T15:33:56Z</time>
      </trkpt>
      <trkpt lat="49.43008" lon="1.13915">
        <ele>140.970001</ele>
        <time>2020-12-05T15:34:19Z</time>
      </trkpt>
      <trkpt lat="49.43022" lon="1.1392">
        <ele>140.970001</ele>
        <time>2020-12-05T15:34:26Z</time>
      </trkpt>
      <trkpt lat="49.43032" lon="1.1392">
        <ele>140.490005</ele>
        <time>2020-12-05T15:34:29Z</time>
      </trkpt>
      <trkpt lat="49.43044" lon="1.13931">
        <ele>140.490005</ele>
        <time>2020-12-05T15:34:33Z</time>
      </trkpt>
      <trkpt lat="49.43051" lon="1.13947">
        <ele>140.009995</ele>
        <time>2020-12-05T15:34:36Z</time>
      </trkpt>
      <trkpt lat="49.43076" lon="1.1398">
        <ele>138.570007</ele>
        <time>2020-12-05T15:34:44Z</time>
      </trkpt>
      <trkpt lat="49.43078" lon="1.13988">
        <ele>138.570007</ele>
        <time>2020-12-05T15:34:45Z</time>
      </trkpt>
      <trkpt lat="49.43079" lon="1.13997">
        <ele>138.570007</ele>
        <time>2020-12-05T15:34:46Z</time>
      </trkpt>
      <trkpt lat="49.43079" lon="1.14006">
        <ele>138.089996</ele>
        <time>2020-12-05T15:34:47Z</time>
      </trkpt>
      <trkpt lat="49.4308" lon="1.14012">
        <ele>138.089996</ele>
        <time>2020-12-05T15:34:48Z</time>
      </trkpt>
      <trkpt lat="49.43081" lon="1.14018">
        <ele>138.089996</ele>
        <time>2020-12-05T15:34:49Z</time>
      </trkpt>
      <trkpt lat="49.43082" lon="1.14026">
        <ele>137.610001</ele>
        <time>2020-12-05T15:34:50Z</time>
      </trkpt>
      <trkpt lat="49.43083" lon="1.14032">
        <ele>137.130005</ele>
        <time>2020-12-05T15:34:51Z</time>
      </trkpt>
      <trkpt lat="49.43086" lon="1.14038">
        <ele>137.130005</ele>
        <time>2020-12-05T15:34:52Z</time>
      </trkpt>
      <trkpt lat="49.43088" lon="1.14045">
        <ele>137.130005</ele>
        <time>2020-12-05T15:34:53Z</time>
      </trkpt>
      <trkpt lat="49.4309" lon="1.14053">
        <ele>136.160004</ele>
        <time>2020-12-05T15:34:54Z</time>
      </trkpt>
      <trkpt lat="49.43093" lon="1.14059">
        <ele>136.160004</ele>
        <time>2020-12-05T15:34:55Z</time>
      </trkpt>
      <trkpt lat="49.43096" lon="1.14066">
        <ele>135.199997</ele>
        <time>2020-12-05T15:34:56Z</time>
      </trkpt>
      <trkpt lat="49.431" lon="1.14071">
        <ele>134.720001</ele>
        <time>2020-12-05T15:34:57Z</time>
      </trkpt>
      <trkpt lat="49.43123" lon="1.14091">
        <ele>131.839996</ele>
        <time>2020-12-05T15:35:01Z</time>
      </trkpt>
      <trkpt lat="49.43143" lon="1.14093">
        <ele>127.989998</ele>
        <time>2020-12-05T15:35:06Z</time>
      </trkpt>
      <trkpt lat="49.43138" lon="1.14089">
        <ele>127.989998</ele>
        <time>2020-12-05T15:35:16Z</time>
      </trkpt>
      <trkpt lat="49.43154" lon="1.14088">
        <ele>125.589996</ele>
        <time>2020-12-05T15:35:22Z</time>
      </trkpt>
      <trkpt lat="49.43143" lon="1.14094">
        <ele>128.949997</ele>
        <time>2020-12-05T15:35:39Z</time>
      </trkpt>
      <trkpt lat="49.43142" lon="1.141">
        <ele>128.949997</ele>
        <time>2020-12-05T15:35:42Z</time>
      </trkpt>
      <trkpt lat="49.43146" lon="1.1411">
        <ele>126.550003</ele>
        <time>2020-12-05T15:35:46Z</time>
      </trkpt>
      <trkpt lat="49.43149" lon="1.14137">
        <ele>123.669998</ele>
        <time>2020-12-05T15:35:51Z</time>
      </trkpt>
      <trkpt lat="49.43149" lon="1.14146">
        <ele>122.220001</ele>
        <time>2020-12-05T15:35:54Z</time>
      </trkpt>
      <trkpt lat="49.43151" lon="1.14157">
        <ele>120.779999</ele>
        <time>2020-12-05T15:35:57Z</time>
      </trkpt>
      <trkpt lat="49.4315" lon="1.14167">
        <ele>119.82</ele>
        <time>2020-12-05T15:35:59Z</time>
      </trkpt>
      <trkpt lat="49.43148" lon="1.14173">
        <ele>118.860001</ele>
        <time>2020-12-05T15:36:02Z</time>
      </trkpt>
      <trkpt lat="49.43148" lon="1.14178">
        <ele>118.379997</ele>
        <time>2020-12-05T15:36:10Z</time>
      </trkpt>
      <trkpt lat="49.43151" lon="1.14169">
        <ele>119.82</ele>
        <time>2020-12-05T15:36:16Z</time>
      </trkpt>
      <trkpt lat="49.43151" lon="1.14167">
        <ele>119.82</ele>
        <time>2020-12-05T15:36:20Z</time>
      </trkpt>
      <trkpt lat="49.43149" lon="1.14181">
        <ele>118.860001</ele>
        <time>2020-12-05T15:36:27Z</time>
      </trkpt>
      <trkpt lat="49.4315" lon="1.14181">
        <ele>118.379997</ele>
        <time>2020-12-05T15:36:40Z</time>
      </trkpt>
      <trkpt lat="49.43156" lon="1.14204">
        <ele>114.529999</ele>
        <time>2020-12-05T15:36:47Z</time>
      </trkpt>
      <trkpt lat="49.43162" lon="1.14209">
        <ele>111.169998</ele>
        <time>2020-12-05T15:36:51Z</time>
      </trkpt>
      <trkpt lat="49.43161" lon="1.1421">
        <ele>111.169998</ele>
        <time>2020-12-05T15:36:52Z</time>
      </trkpt>
      <trkpt lat="49.43178" lon="1.14211">
        <ele>109.25</ele>
        <time>2020-12-05T15:37:04Z</time>
      </trkpt>
      <trkpt lat="49.43184" lon="1.14207">
        <ele>108.290001</ele>
        <time>2020-12-05T15:37:06Z</time>
      </trkpt>
      <trkpt lat="49.43196" lon="1.14214">
        <ele>104.440002</ele>
        <time>2020-12-05T15:37:11Z</time>
      </trkpt>
      <trkpt lat="49.43197" lon="1.1422">
        <ele>103.959999</ele>
        <time>2020-12-05T15:37:13Z</time>
      </trkpt>
      <trkpt lat="49.43197" lon="1.14225">
        <ele>103.480003</ele>
        <time>2020-12-05T15:37:14Z</time>
      </trkpt>
      <trkpt lat="49.43197" lon="1.14234">
        <ele>103</ele>
        <time>2020-12-05T15:37:16Z</time>
      </trkpt>
      <trkpt lat="49.43196" lon="1.14238">
        <ele>102.519997</ele>
        <time>2020-12-05T15:37:17Z</time>
      </trkpt>
      <trkpt lat="49.43192" lon="1.14241">
        <ele>102.519997</ele>
        <time>2020-12-05T15:37:18Z</time>
      </trkpt>
      <trkpt lat="49.43167" lon="1.14261">
        <ele>99.629997</ele>
        <time>2020-12-05T15:37:25Z</time>
      </trkpt>
      <trkpt lat="49.43153" lon="1.14278">
        <ele>99.629997</ele>
        <time>2020-12-05T15:37:30Z</time>
      </trkpt>
      <trkpt lat="49.43151" lon="1.14279">
        <ele>99.629997</ele>
        <time>2020-12-05T15:37:31Z</time>
      </trkpt>
      <trkpt lat="49.4315" lon="1.14281">
        <ele>99.629997</ele>
        <time>2020-12-05T15:37:32Z</time>
      </trkpt>
      <trkpt lat="49.43149" lon="1.14283">
        <ele>99.629997</ele>
        <time>2020-12-05T15:37:33Z</time>
      </trkpt>
      <trkpt lat="49.43147" lon="1.14285">
        <ele>99.629997</ele>
        <time>2020-12-05T15:37:34Z</time>
      </trkpt>
      <trkpt lat="49.43145" lon="1.14288">
        <ele>101.080002</ele>
        <time>2020-12-05T15:37:35Z</time>
      </trkpt>
      <trkpt lat="49.43143" lon="1.14292">
        <ele>101.080002</ele>
        <time>2020-12-05T15:37:36Z</time>
      </trkpt>
      <trkpt lat="49.43141" lon="1.14297">
        <ele>101.559998</ele>
        <time>2020-12-05T15:37:37Z</time>
      </trkpt>
      <trkpt lat="49.43138" lon="1.14302">
        <ele>101.559998</ele>
        <time>2020-12-05T15:37:38Z</time>
      </trkpt>
      <trkpt lat="49.43129" lon="1.14324">
        <ele>99.150002</ele>
        <time>2020-12-05T15:37:42Z</time>
      </trkpt>
      <trkpt lat="49.43129" lon="1.14331">
        <ele>98.669998</ele>
        <time>2020-12-05T15:37:43Z</time>
      </trkpt>
      <trkpt lat="49.4313" lon="1.14337">
        <ele>97.230003</ele>
        <time>2020-12-05T15:37:44Z</time>
      </trkpt>
      <trkpt lat="49.43132" lon="1.14344">
        <ele>96.269997</ele>
        <time>2020-12-05T15:37:45Z</time>
      </trkpt>
      <trkpt lat="49.43136" lon="1.14351">
        <ele>94.830002</ele>
        <time>2020-12-05T15:37:46Z</time>
      </trkpt>
      <trkpt lat="49.4314" lon="1.14357">
        <ele>93.870003</ele>
        <time>2020-12-05T15:37:47Z</time>
      </trkpt>
      <trkpt lat="49.43144" lon="1.14364">
        <ele>92.900002</ele>
        <time>2020-12-05T15:37:48Z</time>
      </trkpt>
      <trkpt lat="49.43154" lon="1.14379">
        <ele>89.059998</ele>
        <time>2020-12-05T15:37:50Z</time>
      </trkpt>
      <trkpt lat="49.43165" lon="1.14394">
        <ele>85.690002</ele>
        <time>2020-12-05T15:37:52Z</time>
      </trkpt>
      <trkpt lat="49.43171" lon="1.14401">
        <ele>84.730003</ele>
        <time>2020-12-05T15:37:53Z</time>
      </trkpt>
      <trkpt lat="49.43184" lon="1.14412">
        <ele>82.330002</ele>
        <time>2020-12-05T15:37:55Z</time>
      </trkpt>
      <trkpt lat="49.43192" lon="1.14418">
        <ele>80.889999</ele>
        <time>2020-12-05T15:37:56Z</time>
      </trkpt>
      <trkpt lat="49.43198" lon="1.14424">
        <ele>78.480003</ele>
        <time>2020-12-05T15:37:57Z</time>
      </trkpt>
      <trkpt lat="49.4321" lon="1.14435">
        <ele>75.120003</ele>
        <time>2020-12-05T15:37:59Z</time>
      </trkpt>
      <trkpt lat="49.43222" lon="1.14447">
        <ele>72.239998</ele>
        <time>2020-12-05T15:38:01Z</time>
      </trkpt>
      <trkpt lat="49.43234" lon="1.14459">
        <ele>69.349998</ele>
        <time>2020-12-05T15:38:03Z</time>
      </trkpt>
      <trkpt lat="49.4324" lon="1.14464">
        <ele>67.43</ele>
        <time>2020-12-05T15:38:04Z</time>
      </trkpt>
      <trkpt lat="49.43247" lon="1.14466">
        <ele>65.989998</ele>
        <time>2020-12-05T15:38:05Z</time>
      </trkpt>
      <trkpt lat="49.43253" lon="1.14465">
        <ele>65.029999</ele>
        <time>2020-12-05T15:38:06Z</time>
      </trkpt>
      <trkpt lat="49.43267" lon="1.1446">
        <ele>63.099998</ele>
        <time>2020-12-05T15:38:10Z</time>
      </trkpt>
      <trkpt lat="49.4327" lon="1.14455">
        <ele>63.099998</ele>
        <time>2020-12-05T15:38:11Z</time>
      </trkpt>
      <trkpt lat="49.43273" lon="1.1445">
        <ele>63.099998</ele>
        <time>2020-12-05T15:38:12Z</time>
      </trkpt>
      <trkpt lat="49.43308" lon="1.14373">
        <ele>59.259998</ele>
        <time>2020-12-05T15:38:20Z</time>
      </trkpt>
      <trkpt lat="49.43313" lon="1.14362">
        <ele>59.259998</ele>
        <time>2020-12-05T15:38:21Z</time>
      </trkpt>
      <trkpt lat="49.43324" lon="1.14347">
        <ele>58.299999</ele>
        <time>2020-12-05T15:38:25Z</time>
      </trkpt>
      <trkpt lat="49.43331" lon="1.14358">
        <ele>56.369999</ele>
        <time>2020-12-05T15:38:28Z</time>
      </trkpt>
      <trkpt lat="49.43336" lon="1.14367">
        <ele>53.009998</ele>
        <time>2020-12-05T15:38:30Z</time>
      </trkpt>
      <trkpt lat="49.43347" lon="1.14375">
        <ele>50.610001</ele>
        <time>2020-12-05T15:38:33Z</time>
      </trkpt>
      <trkpt lat="49.43349" lon="1.14384">
        <ele>50.130001</ele>
        <time>2020-12-05T15:38:35Z</time>
      </trkpt>
      <trkpt lat="49.43349" lon="1.14387">
        <ele>50.130001</ele>
        <time>2020-12-05T15:38:36Z</time>
      </trkpt>
      <trkpt lat="49.43351" lon="1.14393">
        <ele>49.650002</ele>
        <time>2020-12-05T15:38:44Z</time>
      </trkpt>
      <trkpt lat="49.43349" lon="1.14391">
        <ele>49.16</ele>
        <time>2020-12-05T15:39:34Z</time>
      </trkpt>
      <trkpt lat="49.4335" lon="1.14393">
        <ele>49.16</ele>
        <time>2020-12-05T15:39:56Z</time>
      </trkpt>
      <trkpt lat="49.4335" lon="1.14392">
        <ele>49.16</ele>
        <time>2020-12-05T15:40:26Z</time>
      </trkpt>
      <trkpt lat="49.4335" lon="1.1439">
        <ele>49.16</ele>
        <time>2020-12-05T15:40:37Z</time>
      </trkpt>
      <trkpt lat="49.43349" lon="1.14391">
        <ele>48.68</ele>
        <time>2020-12-05T15:40:47Z</time>
      </trkpt>
      <trkpt lat="49.43348" lon="1.14389">
        <ele>48.68</ele>
        <time>2020-12-05T15:41:00Z</time>
      </trkpt>
      <trkpt lat="49.43354" lon="1.1438">
        <ele>48.68</ele>
        <time>2020-12-05T15:41:16Z</time>
      </trkpt>
      <trkpt lat="49.43362" lon="1.1439">
        <ele>48.68</ele>
        <time>2020-12-05T15:41:27Z</time>
      </trkpt>
      <trkpt lat="49.43364" lon="1.14391">
        <ele>48.68</ele>
        <time>2020-12-05T15:41:39Z</time>
      </trkpt>
      <trkpt lat="49.43366" lon="1.14391">
        <ele>48.68</ele>
        <time>2020-12-05T15:42:27Z</time>
      </trkpt>
      <trkpt lat="49.43362" lon="1.14392">
        <ele>48.68</ele>
        <time>2020-12-05T15:42:59Z</time>
      </trkpt>
      <trkpt lat="49.43359" lon="1.14392">
        <ele>48.200001</ele>
        <time>2020-12-05T15:43:23Z</time>
      </trkpt>
      <trkpt lat="49.43358" lon="1.14392">
        <ele>48.200001</ele>
        <time>2020-12-05T15:43:44Z</time>
      </trkpt>
      <trkpt lat="49.43361" lon="1.1439">
        <ele>47.720001</ele>
        <time>2020-12-05T15:44:18Z</time>
      </trkpt>
      <trkpt lat="49.43367" lon="1.14388">
        <ele>47.720001</ele>
        <time>2020-12-05T15:44:41Z</time>
      </trkpt>
      <trkpt lat="49.43366" lon="1.14388">
        <ele>47.720001</ele>
        <time>2020-12-05T15:45:04Z</time>
      </trkpt>
      <trkpt lat="49.43368" lon="1.14386">
        <ele>48.68</ele>
        <time>2020-12-05T15:45:30Z</time>
      </trkpt>
      <trkpt lat="49.43365" lon="1.14386">
        <ele>48.200001</ele>
        <time>2020-12-05T15:45:50Z</time>
      </trkpt>
      <trkpt lat="49.4337" lon="1.14385">
        <ele>48.200001</ele>
        <time>2020-12-05T15:46:13Z</time>
      </trkpt>
      <trkpt lat="49.43371" lon="1.14386">
        <ele>48.200001</ele>
        <time>2020-12-05T15:46:36Z</time>
      </trkpt>
      <trkpt lat="49.43361" lon="1.14388">
        <ele>46.759998</ele>
        <time>2020-12-05T15:47:11Z</time>
      </trkpt>
      <trkpt lat="49.43352" lon="1.1439">
        <ele>45.799999</ele>
        <time>2020-12-05T15:47:34Z</time>
      </trkpt>
      <trkpt lat="49.43349" lon="1.14394">
        <ele>47.240002</ele>
        <time>2020-12-05T15:47:44Z</time>
      </trkpt>
      <trkpt lat="49.43348" lon="1.14391">
        <ele>45.799999</ele>
        <time>2020-12-05T15:48:02Z</time>
      </trkpt>
      <trkpt lat="49.43348" lon="1.14387">
        <ele>45.799999</ele>
        <time>2020-12-05T15:48:34Z</time>
      </trkpt>
      <trkpt lat="49.4335" lon="1.14388">
        <ele>45.32</ele>
        <time>2020-12-05T15:49:06Z</time>
      </trkpt>
      <trkpt lat="49.43356" lon="1.14387">
        <ele>46.759998</ele>
        <time>2020-12-05T15:49:28Z</time>
      </trkpt>
      <trkpt lat="49.43363" lon="1.14386">
        <ele>214.029999</ele>
        <time>2020-12-05T13:07:39Z</time>
      </trkpt>
      <trkpt lat="49.43363" lon="1.14386">
        <ele>214.029999</ele>
        <time>2020-12-05T13:07:39Z</time>
      </trkpt>
      <trkpt lat="49.43361" lon="1.14386">
        <ele>214.029999</ele>
        <time>2020-12-05T13:08:03Z</time>
      </trkpt>
      <trkpt lat="49.4336" lon="1.14386">
        <ele>198.169998</ele>
        <time>2020-12-05T13:08:14Z</time>
      </trkpt>
      <trkpt lat="49.43359" lon="1.14386">
        <ele>170.289993</ele>
        <time>2020-12-05T13:08:20Z</time>
      </trkpt>
      <trkpt lat="49.43358" lon="1.14385">
        <ele>123.190002</ele>
        <time>2020-12-05T13:08:34Z</time>
      </trkpt>
      <trkpt lat="49.43359" lon="1.14384">
        <ele>108.769997</ele>
        <time>2020-12-05T13:08:40Z</time>
      </trkpt>
      <trkpt lat="49.4336" lon="1.14384">
        <ele>90.019997</ele>
        <time>2020-12-05T13:08:50Z</time>
      </trkpt>
      <trkpt lat="49.4336" lon="1.14385">
        <ele>78.970001</ele>
        <time>2020-12-05T13:08:58Z</time>
      </trkpt>
      <trkpt lat="49.43358" lon="1.14385">
        <ele>58.779999</ele>
        <time>2020-12-05T13:09:27Z</time>
      </trkpt>
      <trkpt lat="49.4336" lon="1.14383">
        <ele>53.009998</ele>
        <time>2020-12-05T13:09:45Z</time>
      </trkpt>
      <trkpt lat="49.43363" lon="1.14388">
        <ele>52.529999</ele>
        <time>2020-12-05T13:10:15Z</time>
      </trkpt>
      <trkpt lat="49.43368" lon="1.14387">
        <ele>50.610001</ele>
        <time>2020-12-05T13:10:47Z</time>
      </trkpt>
      <trkpt lat="49.43367" lon="1.1439">
        <ele>52.529999</ele>
        <time>2020-12-05T13:11:09Z</time>
      </trkpt>
      <trkpt lat="49.43366" lon="1.14389">
        <ele>51.09</ele>
        <time>2020-12-05T13:11:15Z</time>
      </trkpt>
      <trkpt lat="49.43362" lon="1.14392">
        <ele>52.529999</ele>
        <time>2020-12-05T13:11:30Z</time>
      </trkpt>
      <trkpt lat="49.43363" lon="1.14391">
        <ele>52.529999</ele>
        <time>2020-12-05T13:11:33Z</time>
      </trkpt>
      <trkpt lat="49.43361" lon="1.14386">
        <ele>52.529999</ele>
        <time>2020-12-05T13:11:36Z</time>
      </trkpt>
      <trkpt lat="49.43359" lon="1.14386">
        <ele>52.529999</ele>
        <time>2020-12-05T13:11:37Z</time>
      </trkpt>
      <trkpt lat="49.43356" lon="1.14387">
        <ele>52.529999</ele>
        <time>2020-12-05T13:11:38Z</time>
      </trkpt>
      <trkpt lat="49.43352" lon="1.1439">
        <ele>52.529999</ele>
        <time>2020-12-05T13:11:46Z</time>
      </trkpt>
      <trkpt lat="49.4335" lon="1.1439">
        <ele>52.529999</ele>
        <time>2020-12-05T13:11:50Z</time>
      </trkpt>
      <trkpt lat="49.43351" lon="1.14384">
        <ele>52.529999</ele>
        <time>2020-12-05T13:11:53Z</time>
      </trkpt>
      <trkpt lat="49.43351" lon="1.1438">
        <ele>52.529999</ele>
        <time>2020-12-05T13:11:54Z</time>
      </trkpt>
      <trkpt lat="49.43349" lon="1.14373">
        <ele>53.009998</ele>
        <time>2020-12-05T13:11:56Z</time>
      </trkpt>
      <trkpt lat="49.43346" lon="1.1437">
        <ele>53.009998</ele>
        <time>2020-12-05T13:11:57Z</time>
      </trkpt>
      <trkpt lat="49.43344" lon="1.14369">
        <ele>53.970001</ele>
        <time>2020-12-05T13:11:58Z</time>
      </trkpt>
      <trkpt lat="49.43342" lon="1.14368">
        <ele>54.450001</ele>
        <time>2020-12-05T13:11:59Z</time>
      </trkpt>
      <trkpt lat="49.4334" lon="1.14367">
        <ele>54.93</ele>
        <time>2020-12-05T13:12:00Z</time>
      </trkpt>
      <trkpt lat="49.43332" lon="1.1436">
        <ele>58.299999</ele>
        <time>2020-12-05T13:12:07Z</time>
      </trkpt>
      <trkpt lat="49.4333" lon="1.14356">
        <ele>59.259998</ele>
        <time>2020-12-05T13:12:09Z</time>
      </trkpt>
      <trkpt lat="49.43324" lon="1.14349">
        <ele>61.18</ele>
        <time>2020-12-05T13:12:13Z</time>
      </trkpt>
      <trkpt lat="49.43321" lon="1.1435">
        <ele>61.66</ele>
        <time>2020-12-05T13:12:14Z</time>
      </trkpt>
      <trkpt lat="49.43319" lon="1.14352">
        <ele>61.66</ele>
        <time>2020-12-05T13:12:15Z</time>
      </trkpt>
      <trkpt lat="49.43317" lon="1.14355">
        <ele>62.139999</ele>
        <time>2020-12-05T13:12:16Z</time>
      </trkpt>
      <trkpt lat="49.43315" lon="1.14358">
        <ele>62.139999</ele>
        <time>2020-12-05T13:12:17Z</time>
      </trkpt>
      <trkpt lat="49.43313" lon="1.14362">
        <ele>63.099998</ele>
        <time>2020-12-05T13:12:18Z</time>
      </trkpt>
      <trkpt lat="49.43311" lon="1.14366">
        <ele>63.099998</ele>
        <time>2020-12-05T13:12:19Z</time>
      </trkpt>
      <trkpt lat="49.43281" lon="1.14415">
        <ele>64.550003</ele>
        <time>2020-12-05T13:12:32Z</time>
      </trkpt>
      <trkpt lat="49.43262" lon="1.14458">
        <ele>65.989998</ele>
        <time>2020-12-05T13:12:42Z</time>
      </trkpt>
      <trkpt lat="49.43258" lon="1.14459">
        <ele>65.989998</ele>
        <time>2020-12-05T13:12:43Z</time>
      </trkpt>
      <trkpt lat="49.43235" lon="1.1446">
        <ele>69.349998</ele>
        <time>2020-12-05T13:12:54Z</time>
      </trkpt>
      <trkpt lat="49.43222" lon="1.14448">
        <ele>72.720001</ele>
        <time>2020-12-05T13:13:04Z</time>
      </trkpt>
      <trkpt lat="49.43207" lon="1.14434">
        <ele>76.559998</ele>
        <time>2020-12-05T13:13:15Z</time>
      </trkpt>
      <trkpt lat="49.43193" lon="1.14421">
        <ele>79.449997</ele>
        <time>2020-12-05T13:13:26Z</time>
      </trkpt>
      <trkpt lat="49.43179" lon="1.1441">
        <ele>82.809998</ele>
        <time>2020-12-05T13:13:36Z</time>
      </trkpt>
      <trkpt lat="49.43173" lon="1.14405">
        <ele>84.25</ele>
        <time>2020-12-05T13:13:41Z</time>
      </trkpt>
      <trkpt lat="49.43161" lon="1.14394">
        <ele>87.139999</ele>
        <time>2020-12-05T13:13:51Z</time>
      </trkpt>
      <trkpt lat="49.43155" lon="1.14386">
        <ele>88.580002</ele>
        <time>2020-12-05T13:13:56Z</time>
      </trkpt>
      <trkpt lat="49.43147" lon="1.14376">
        <ele>91.940002</ele>
        <time>2020-12-05T13:14:04Z</time>
      </trkpt>
      <trkpt lat="49.43137" lon="1.14363">
        <ele>95.309998</ele>
        <time>2020-12-05T13:14:14Z</time>
      </trkpt>
      <trkpt lat="49.43128" lon="1.14347">
        <ele>98.669998</ele>
        <time>2020-12-05T13:14:24Z</time>
      </trkpt>
      <trkpt lat="49.43124" lon="1.14338">
        <ele>100.599998</ele>
        <time>2020-12-05T13:14:30Z</time>
      </trkpt>
      <trkpt lat="49.43124" lon="1.14336">
        <ele>101.080002</ele>
        <time>2020-12-05T13:14:31Z</time>
      </trkpt>
      <trkpt lat="49.43124" lon="1.14334">
        <ele>101.080002</ele>
        <time>2020-12-05T13:14:32Z</time>
      </trkpt>
      <trkpt lat="49.43124" lon="1.14332">
        <ele>101.080002</ele>
        <time>2020-12-05T13:14:33Z</time>
      </trkpt>
      <trkpt lat="49.43124" lon="1.1433">
        <ele>101.559998</ele>
        <time>2020-12-05T13:14:34Z</time>
      </trkpt>
      <trkpt lat="49.43124" lon="1.14328">
        <ele>101.559998</ele>
        <time>2020-12-05T13:14:35Z</time>
      </trkpt>
      <trkpt lat="49.43125" lon="1.14324">
        <ele>102.519997</ele>
        <time>2020-12-05T13:14:37Z</time>
      </trkpt>
      <trkpt lat="49.43143" lon="1.14289">
        <ele>103.480003</ele>
        <time>2020-12-05T13:14:52Z</time>
      </trkpt>
      <trkpt lat="49.43146" lon="1.14287">
        <ele>102.519997</ele>
        <time>2020-12-05T13:14:55Z</time>
      </trkpt>
      <trkpt lat="49.43147" lon="1.14284">
        <ele>102.519997</ele>
        <time>2020-12-05T13:14:56Z</time>
      </trkpt>
      <trkpt lat="49.43148" lon="1.14283">
        <ele>102.519997</ele>
        <time>2020-12-05T13:14:57Z</time>
      </trkpt>
      <trkpt lat="49.43149" lon="1.14282">
        <ele>102.519997</ele>
        <time>2020-12-05T13:14:58Z</time>
      </trkpt>
      <trkpt lat="49.43151" lon="1.14282">
        <ele>102.519997</ele>
        <time>2020-12-05T13:14:59Z</time>
      </trkpt>
      <trkpt lat="49.43152" lon="1.14282">
        <ele>102.519997</ele>
        <time>2020-12-05T13:15:00Z</time>
      </trkpt>
      <trkpt lat="49.43153" lon="1.14281">
        <ele>102.519997</ele>
        <time>2020-12-05T13:15:01Z</time>
      </trkpt>
      <trkpt lat="49.43159" lon="1.14274">
        <ele>103.480003</ele>
        <time>2020-12-05T13:15:05Z</time>
      </trkpt>
      <trkpt lat="49.43161" lon="1.14272">
        <ele>103.480003</ele>
        <time>2020-12-05T13:15:06Z</time>
      </trkpt>
      <trkpt lat="49.43167" lon="1.14267">
        <ele>103.959999</ele>
        <time>2020-12-05T13:15:10Z</time>
      </trkpt>
      <trkpt lat="49.43181" lon="1.1425">
        <ele>104.919998</ele>
        <time>2020-12-05T13:15:12Z</time>
      </trkpt>
      <trkpt lat="49.43184" lon="1.14243">
        <ele>104.919998</ele>
        <time>2020-12-05T13:15:13Z</time>
      </trkpt>
      <trkpt lat="49.43186" lon="1.14238">
        <ele>105.400002</ele>
        <time>2020-12-05T13:15:14Z</time>
      </trkpt>
      <trkpt lat="49.43187" lon="1.14235">
        <ele>105.879997</ele>
        <time>2020-12-05T13:15:15Z</time>
      </trkpt>
      <trkpt lat="49.43188" lon="1.14231">
        <ele>106.360001</ele>
        <time>2020-12-05T13:15:16Z</time>
      </trkpt>
      <trkpt lat="49.43189" lon="1.14226">
        <ele>106.839996</ele>
        <time>2020-12-05T13:15:17Z</time>
      </trkpt>
      <trkpt lat="49.4319" lon="1.14221">
        <ele>107.32</ele>
        <time>2020-12-05T13:15:19Z</time>
      </trkpt>
      <trkpt lat="49.4319" lon="1.14218">
        <ele>107.32</ele>
        <time>2020-12-05T13:15:20Z</time>
      </trkpt>
      <trkpt lat="49.43188" lon="1.14214">
        <ele>108.290001</ele>
        <time>2020-12-05T13:15:22Z</time>
      </trkpt>
      <trkpt lat="49.43185" lon="1.1421">
        <ele>109.730003</ele>
        <time>2020-12-05T13:15:25Z</time>
      </trkpt>
      <trkpt lat="49.43184" lon="1.14209">
        <ele>110.690002</ele>
        <time>2020-12-05T13:15:27Z</time>
      </trkpt>
      <trkpt lat="49.43167" lon="1.14211">
        <ele>113.57</ele>
        <time>2020-12-05T13:15:39Z</time>
      </trkpt>
      <trkpt lat="49.43152" lon="1.14205">
        <ele>115.980003</ele>
        <time>2020-12-05T13:15:49Z</time>
      </trkpt>
      <trkpt lat="49.43149" lon="1.14203">
        <ele>116.940002</ele>
        <time>2020-12-05T13:15:51Z</time>
      </trkpt>
      <trkpt lat="49.43144" lon="1.14191">
        <ele>120.300003</ele>
        <time>2020-12-05T13:15:59Z</time>
      </trkpt>
      <trkpt lat="49.43143" lon="1.14187">
        <ele>121.739998</ele>
        <time>2020-12-05T13:16:02Z</time>
      </trkpt>
      <trkpt lat="49.43146" lon="1.14184">
        <ele>121.739998</ele>
        <time>2020-12-05T13:16:05Z</time>
      </trkpt>
      <trkpt lat="49.43148" lon="1.14165">
        <ele>123.190002</ele>
        <time>2020-12-05T13:16:13Z</time>
      </trkpt>
      <trkpt lat="49.43144" lon="1.14161">
        <ele>124.629997</ele>
        <time>2020-12-05T13:16:16Z</time>
      </trkpt>
      <trkpt lat="49.4312" lon="1.14166">
        <ele>126.07</ele>
        <time>2020-12-05T13:16:29Z</time>
      </trkpt>
      <trkpt lat="49.43102" lon="1.14164">
        <ele>128.949997</ele>
        <time>2020-12-05T13:16:39Z</time>
      </trkpt>
      <trkpt lat="49.43097" lon="1.14146">
        <ele>131.839996</ele>
        <time>2020-12-05T13:16:47Z</time>
      </trkpt>
      <trkpt lat="49.43095" lon="1.14136">
        <ele>133.279999</ele>
        <time>2020-12-05T13:16:51Z</time>
      </trkpt>
      <trkpt lat="49.43083" lon="1.14132">
        <ele>134.720001</ele>
        <time>2020-12-05T13:16:58Z</time>
      </trkpt>
      <trkpt lat="49.43058" lon="1.14143">
        <ele>134.720001</ele>
        <time>2020-12-05T13:17:06Z</time>
      </trkpt>
      <trkpt lat="49.43056" lon="1.1414">
        <ele>135.199997</ele>
        <time>2020-12-05T13:17:07Z</time>
      </trkpt>
      <trkpt lat="49.43055" lon="1.14135">
        <ele>136.160004</ele>
        <time>2020-12-05T13:17:08Z</time>
      </trkpt>
      <trkpt lat="49.43054" lon="1.14132">
        <ele>135.679993</ele>
        <time>2020-12-05T13:17:09Z</time>
      </trkpt>
      <trkpt lat="49.43054" lon="1.14128">
        <ele>136.160004</ele>
        <time>2020-12-05T13:17:10Z</time>
      </trkpt>
      <trkpt lat="49.43055" lon="1.14098">
        <ele>138.089996</ele>
        <time>2020-12-05T13:17:17Z</time>
      </trkpt>
      <trkpt lat="49.43055" lon="1.14094">
        <ele>138.089996</ele>
        <time>2020-12-05T13:17:18Z</time>
      </trkpt>
      <trkpt lat="49.43054" lon="1.1409">
        <ele>138.089996</ele>
        <time>2020-12-05T13:17:19Z</time>
      </trkpt>
      <trkpt lat="49.43051" lon="1.14086">
        <ele>139.050003</ele>
        <time>2020-12-05T13:17:20Z</time>
      </trkpt>
      <trkpt lat="49.43048" lon="1.14084">
        <ele>139.050003</ele>
        <time>2020-12-05T13:17:21Z</time>
      </trkpt>
      <trkpt lat="49.43046" lon="1.14083">
        <ele>139.529999</ele>
        <time>2020-12-05T13:17:22Z</time>
      </trkpt>
      <trkpt lat="49.4303" lon="1.14069">
        <ele>140.970001</ele>
        <time>2020-12-05T13:17:28Z</time>
      </trkpt>
      <trkpt lat="49.43027" lon="1.14068">
        <ele>140.970001</ele>
        <time>2020-12-05T13:17:29Z</time>
      </trkpt>
      <trkpt lat="49.43024" lon="1.14069">
        <ele>140.970001</ele>
        <time>2020-12-05T13:17:30Z</time>
      </trkpt>
      <trkpt lat="49.43022" lon="1.1407">
        <ele>140.970001</ele>
        <time>2020-12-05T13:17:31Z</time>
      </trkpt>
      <trkpt lat="49.43019" lon="1.14073">
        <ele>140.970001</ele>
        <time>2020-12-05T13:17:32Z</time>
      </trkpt>
      <trkpt lat="49.42996" lon="1.14087">
        <ele>140.970001</ele>
        <time>2020-12-05T13:17:41Z</time>
      </trkpt>
      <trkpt lat="49.42987" lon="1.14073">
        <ele>141.449997</ele>
        <time>2020-12-05T13:17:45Z</time>
      </trkpt>
      <trkpt lat="49.42982" lon="1.14067">
        <ele>141.449997</ele>
        <time>2020-12-05T13:17:47Z</time>
      </trkpt>
      <trkpt lat="49.4295" lon="1.14042">
        <ele>142.889999</ele>
        <time>2020-12-05T13:17:58Z</time>
      </trkpt>
      <trkpt lat="49.42928" lon="1.14">
        <ele>143.369995</ele>
        <time>2020-12-05T13:18:08Z</time>
      </trkpt>
      <trkpt lat="49.42928" lon="1.13994">
        <ele>143.850006</ele>
        <time>2020-12-05T13:18:09Z</time>
      </trkpt>
      <trkpt lat="49.42922" lon="1.13973">
        <ele>144.820007</ele>
        <time>2020-12-05T13:18:13Z</time>
      </trkpt>
      <trkpt lat="49.42912" lon="1.13958">
        <ele>144.820007</ele>
        <time>2020-12-05T13:18:16Z</time>
      </trkpt>
      <trkpt lat="49.42885" lon="1.13967">
        <ele>144.339996</ele>
        <time>2020-12-05T13:18:24Z</time>
      </trkpt>
      <trkpt lat="49.42884" lon="1.13973">
        <ele>144.339996</ele>
        <time>2020-12-05T13:18:25Z</time>
      </trkpt>
      <trkpt lat="49.42883" lon="1.13977">
        <ele>143.369995</ele>
        <time>2020-12-05T13:18:32Z</time>
      </trkpt>
      <trkpt lat="49.42884" lon="1.13979">
        <ele>142.889999</ele>
        <time>2020-12-05T13:19:51Z</time>
      </trkpt>
      <trkpt lat="49.42878" lon="1.13985">
        <ele>142.889999</ele>
        <time>2020-12-05T13:19:56Z</time>
      </trkpt>
      <trkpt lat="49.42863" lon="1.13993">
        <ele>142.889999</ele>
        <time>2020-12-05T13:20:03Z</time>
      </trkpt>
      <trkpt lat="49.42861" lon="1.13992">
        <ele>142.889999</ele>
        <time>2020-12-05T13:20:04Z</time>
      </trkpt>
      <trkpt lat="49.42858" lon="1.1399">
        <ele>142.889999</ele>
        <time>2020-12-05T13:20:05Z</time>
      </trkpt>
      <trkpt lat="49.42856" lon="1.13987">
        <ele>142.889999</ele>
        <time>2020-12-05T13:20:06Z</time>
      </trkpt>
      <trkpt lat="49.42854" lon="1.13983">
        <ele>142.889999</ele>
        <time>2020-12-05T13:20:07Z</time>
      </trkpt>
      <trkpt lat="49.42838" lon="1.13954">
        <ele>142.889999</ele>
        <time>2020-12-05T13:20:14Z</time>
      </trkpt>
      <trkpt lat="49.42811" lon="1.1391">
        <ele>142.889999</ele>
        <time>2020-12-05T13:20:24Z</time>
      </trkpt>
    </trkseg>
  </trk>
</gpx>